<?xml version='1.0' encoding='UTF-8'?>
<gpx version="1.1" creator="https://www.komoot.de" xmlns="http://www.topografix.com/GPX/1/1" xmlns:xsi="http://www.w3.org/2001/XMLSchema-instance" xsi:schemaLocation="http://www.topografix.com/GPX/1/1 http://www.topografix.com/GPX/1/1/gpx.xsd">
  <metadata>
    <name>umanand_2026</name>
    <author>
      <link href="https://www.komoot.de">
        <text>komoot</text>
        <type>text/html</type>
      </link>
    </author>
  </metadata>
  <trk>
    <name>umanand_2026</name>
    <type>touring_bicycle</type>
    <trkseg>
      <trkpt lat="47.919728" lon="9.753009">
        <ele>583.595780</ele>
        <time>2026-07-29T06:53:55.998Z</time>
      </trkpt>
      <trkpt lat="47.919922" lon="9.752725">
        <ele>583.595780</ele>
        <time>2026-07-29T06:54:02.420Z</time>
      </trkpt>
      <trkpt lat="47.919889" lon="9.752629">
        <ele>583.595780</ele>
        <time>2026-07-29T06:54:04.178Z</time>
      </trkpt>
      <trkpt lat="47.919846" lon="9.752562">
        <ele>583.595780</ele>
        <time>2026-07-29T06:54:05.725Z</time>
      </trkpt>
      <trkpt lat="47.919774" lon="9.752467">
        <ele>583.595780</ele>
        <time>2026-07-29T06:54:08.229Z</time>
      </trkpt>
      <trkpt lat="47.919755" lon="9.752434">
        <ele>583.595780</ele>
        <time>2026-07-29T06:54:09.023Z</time>
      </trkpt>
      <trkpt lat="47.919674" lon="9.752317">
        <ele>583.595780</ele>
        <time>2026-07-29T06:54:12.146Z</time>
      </trkpt>
      <trkpt lat="47.919644" lon="9.752268">
        <ele>583.595780</ele>
        <time>2026-07-29T06:54:13.445Z</time>
      </trkpt>
      <trkpt lat="47.919579" lon="9.752160">
        <ele>583.595780</ele>
        <time>2026-07-29T06:54:16.409Z</time>
      </trkpt>
      <trkpt lat="47.919819" lon="9.751802">
        <ele>583.979442</ele>
        <time>2026-07-29T06:54:26.807Z</time>
      </trkpt>
      <trkpt lat="47.919740" lon="9.751671">
        <ele>584.179896</ele>
        <time>2026-07-29T06:54:30.434Z</time>
      </trkpt>
      <trkpt lat="47.919686" lon="9.751601">
        <ele>584.301304</ele>
        <time>2026-07-29T06:54:32.358Z</time>
      </trkpt>
      <trkpt lat="47.919550" lon="9.751074">
        <ele>584.943655</ele>
        <time>2026-07-29T06:54:42.432Z</time>
      </trkpt>
      <trkpt lat="47.919491" lon="9.750649">
        <ele>585.437340</ele>
        <time>2026-07-29T06:54:49.870Z</time>
      </trkpt>
      <trkpt lat="47.919603" lon="9.750195">
        <ele>585.987626</ele>
        <time>2026-07-29T06:55:00.481Z</time>
      </trkpt>
      <trkpt lat="47.918833" lon="9.749806">
        <ele>587.149288</ele>
        <time>2026-07-29T06:55:30.184Z</time>
      </trkpt>
      <trkpt lat="47.918709" lon="9.749697">
        <ele>587.319439</ele>
        <time>2026-07-29T06:55:34.930Z</time>
      </trkpt>
      <trkpt lat="47.918771" lon="9.749569">
        <ele>587.444576</ele>
        <time>2026-07-29T06:55:38.191Z</time>
      </trkpt>
      <trkpt lat="47.918778" lon="9.749507">
        <ele>587.494394</ele>
        <time>2026-07-29T06:55:39.457Z</time>
      </trkpt>
      <trkpt lat="47.918706" lon="9.749095">
        <ele>587.831757</ele>
        <time>2026-07-29T06:55:47.282Z</time>
      </trkpt>
      <trkpt lat="47.918799" lon="9.748722">
        <ele>588.147093</ele>
        <time>2026-07-29T06:55:54.168Z</time>
      </trkpt>
      <trkpt lat="47.918813" lon="9.748228">
        <ele>588.538862</ele>
        <time>2026-07-29T06:56:02.688Z</time>
      </trkpt>
      <trkpt lat="47.918916" lon="9.747979">
        <ele>588.770711</ele>
        <time>2026-07-29T06:56:06.572Z</time>
      </trkpt>
      <trkpt lat="47.919059" lon="9.747793">
        <ele>588.510201</ele>
        <time>2026-07-29T06:56:09.810Z</time>
      </trkpt>
      <trkpt lat="47.919129" lon="9.747784">
        <ele>588.410160</ele>
        <time>2026-07-29T06:56:10.945Z</time>
      </trkpt>
      <trkpt lat="47.919363" lon="9.747604">
        <ele>588.035301</ele>
        <time>2026-07-29T06:56:15.090Z</time>
      </trkpt>
      <trkpt lat="47.919697" lon="9.747452">
        <ele>587.538095</ele>
        <time>2026-07-29T06:56:20.691Z</time>
      </trkpt>
      <trkpt lat="47.920051" lon="9.747083">
        <ele>586.923230</ele>
        <time>2026-07-29T06:56:28.694Z</time>
      </trkpt>
      <trkpt lat="47.920363" lon="9.746810">
        <ele>586.408230</ele>
        <time>2026-07-29T06:56:36.476Z</time>
      </trkpt>
      <trkpt lat="47.920778" lon="9.746500">
        <ele>586.075281</ele>
        <time>2026-07-29T06:56:47.686Z</time>
      </trkpt>
      <trkpt lat="47.920877" lon="9.746203">
        <ele>585.981176</ele>
        <time>2026-07-29T06:56:53.449Z</time>
      </trkpt>
      <trkpt lat="47.920942" lon="9.745891">
        <ele>585.888484</ele>
        <time>2026-07-29T06:56:59.420Z</time>
      </trkpt>
      <trkpt lat="47.920968" lon="9.745614">
        <ele>585.809132</ele>
        <time>2026-07-29T06:57:04.678Z</time>
      </trkpt>
      <trkpt lat="47.920961" lon="9.745028">
        <ele>585.642859</ele>
        <time>2026-07-29T06:57:12.961Z</time>
      </trkpt>
      <trkpt lat="47.921238" lon="9.744774">
        <ele>585.505226</ele>
        <time>2026-07-29T06:57:18.479Z</time>
      </trkpt>
      <trkpt lat="47.921312" lon="9.744566">
        <ele>585.407924</ele>
        <time>2026-07-29T06:57:21.033Z</time>
      </trkpt>
      <trkpt lat="47.921349" lon="9.744525">
        <ele>585.346413</ele>
        <time>2026-07-29T06:57:21.768Z</time>
      </trkpt>
      <trkpt lat="47.921413" lon="9.744459">
        <ele>585.242578</ele>
        <time>2026-07-29T06:57:24.084Z</time>
      </trkpt>
      <trkpt lat="47.921427" lon="9.744381">
        <ele>585.170352</ele>
        <time>2026-07-29T06:57:24.971Z</time>
      </trkpt>
      <trkpt lat="47.921572" lon="9.744262">
        <ele>584.949482</ele>
        <time>2026-07-29T06:57:27.769Z</time>
      </trkpt>
      <trkpt lat="47.921632" lon="9.744169">
        <ele>584.834015</ele>
        <time>2026-07-29T06:57:29.254Z</time>
      </trkpt>
      <trkpt lat="47.921670" lon="9.744166">
        <ele>584.783226</ele>
        <time>2026-07-29T06:57:29.931Z</time>
      </trkpt>
      <trkpt lat="47.921844" lon="9.743977">
        <ele>584.495977</ele>
        <time>2026-07-29T06:57:33.788Z</time>
      </trkpt>
      <trkpt lat="47.921891" lon="9.743945">
        <ele>584.427025</ele>
        <time>2026-07-29T06:57:34.707Z</time>
      </trkpt>
      <trkpt lat="47.922345" lon="9.743614">
        <ele>583.752615</ele>
        <time>2026-07-29T06:57:44.216Z</time>
      </trkpt>
      <trkpt lat="47.922693" lon="9.743354">
        <ele>583.233175</ele>
        <time>2026-07-29T06:57:52.429Z</time>
      </trkpt>
      <trkpt lat="47.922760" lon="9.743271">
        <ele>583.116952</ele>
        <time>2026-07-29T06:57:54.343Z</time>
      </trkpt>
      <trkpt lat="47.922813" lon="9.743363">
        <ele>583.048443</ele>
        <time>2026-07-29T06:57:56.135Z</time>
      </trkpt>
      <trkpt lat="47.922945" lon="9.743589">
        <ele>583.026911</ele>
        <time>2026-07-29T06:58:00.665Z</time>
      </trkpt>
      <trkpt lat="47.923087" lon="9.743807">
        <ele>583.005077</ele>
        <time>2026-07-29T06:58:05.302Z</time>
      </trkpt>
      <trkpt lat="47.923162" lon="9.743913">
        <ele>582.994006</ele>
        <time>2026-07-29T06:58:07.474Z</time>
      </trkpt>
      <trkpt lat="47.923332" lon="9.744156">
        <ele>582.968776</ele>
        <time>2026-07-29T06:58:12.513Z</time>
      </trkpt>
      <trkpt lat="47.923416" lon="9.743916">
        <ele>582.949330</ele>
        <time>2026-07-29T06:58:16.533Z</time>
      </trkpt>
      <trkpt lat="47.923656" lon="9.742965">
        <ele>582.876346</ele>
        <time>2026-07-29T06:58:31.805Z</time>
      </trkpt>
      <trkpt lat="47.923714" lon="9.742746">
        <ele>582.859434</ele>
        <time>2026-07-29T06:58:35.263Z</time>
      </trkpt>
      <trkpt lat="47.923837" lon="9.742280">
        <ele>582.803688</ele>
        <time>2026-07-29T06:58:42.388Z</time>
      </trkpt>
      <trkpt lat="47.923900" lon="9.742031">
        <ele>582.773986</ele>
        <time>2026-07-29T06:58:46.185Z</time>
      </trkpt>
      <trkpt lat="47.924121" lon="9.741197">
        <ele>582.673900</ele>
        <time>2026-07-29T06:58:59.786Z</time>
      </trkpt>
      <trkpt lat="47.924434" lon="9.740013">
        <ele>582.430442</ele>
        <time>2026-07-29T06:59:18.429Z</time>
      </trkpt>
      <trkpt lat="47.924867" lon="9.738376">
        <ele>581.516800</ele>
        <time>2026-07-29T06:59:39.886Z</time>
      </trkpt>
      <trkpt lat="47.924377" lon="9.737454">
        <ele>581.206023</ele>
        <time>2026-07-29T06:59:58.715Z</time>
      </trkpt>
      <trkpt lat="47.923735" lon="9.736250">
        <ele>581.328229</ele>
        <time>2026-07-29T07:00:22.512Z</time>
      </trkpt>
      <trkpt lat="47.923697" lon="9.736181">
        <ele>581.335323</ele>
        <time>2026-07-29T07:00:23.838Z</time>
      </trkpt>
      <trkpt lat="47.923169" lon="9.735234">
        <ele>581.056601</ele>
        <time>2026-07-29T07:00:42.217Z</time>
      </trkpt>
      <trkpt lat="47.923097" lon="9.735153">
        <ele>580.992469</ele>
        <time>2026-07-29T07:00:44.253Z</time>
      </trkpt>
      <trkpt lat="47.922946" lon="9.734602">
        <ele>580.708738</ele>
        <time>2026-07-29T07:00:52.808Z</time>
      </trkpt>
      <trkpt lat="47.922919" lon="9.734430">
        <ele>580.624539</ele>
        <time>2026-07-29T07:00:55.100Z</time>
      </trkpt>
      <trkpt lat="47.922960" lon="9.733875">
        <ele>580.358409</ele>
        <time>2026-07-29T07:01:01.964Z</time>
      </trkpt>
      <trkpt lat="47.923011" lon="9.733386">
        <ele>580.122534</ele>
        <time>2026-07-29T07:01:07.873Z</time>
      </trkpt>
      <trkpt lat="47.923046" lon="9.733174">
        <ele>580.004856</ele>
        <time>2026-07-29T07:01:10.518Z</time>
      </trkpt>
      <trkpt lat="47.923061" lon="9.732802">
        <ele>579.797615</ele>
        <time>2026-07-29T07:01:15.151Z</time>
      </trkpt>
      <trkpt lat="47.923039" lon="9.732582">
        <ele>579.673919</ele>
        <time>2026-07-29T07:01:17.976Z</time>
      </trkpt>
      <trkpt lat="47.922715" lon="9.731556">
        <ele>579.043188</ele>
        <time>2026-07-29T07:01:33.097Z</time>
      </trkpt>
      <trkpt lat="47.922591" lon="9.731017">
        <ele>578.726280</ele>
        <time>2026-07-29T07:01:41.090Z</time>
      </trkpt>
      <trkpt lat="47.922595" lon="9.730706">
        <ele>578.593616</ele>
        <time>2026-07-29T07:01:45.529Z</time>
      </trkpt>
      <trkpt lat="47.922646" lon="9.730578">
        <ele>578.572368</ele>
        <time>2026-07-29T07:01:47.663Z</time>
      </trkpt>
      <trkpt lat="47.922736" lon="9.730467">
        <ele>578.547508</ele>
        <time>2026-07-29T07:01:50.189Z</time>
      </trkpt>
      <trkpt lat="47.923133" lon="9.730214">
        <ele>578.455594</ele>
        <time>2026-07-29T07:01:59.616Z</time>
      </trkpt>
      <trkpt lat="47.923756" lon="9.729515">
        <ele>578.289635</ele>
        <time>2026-07-29T07:02:16.534Z</time>
      </trkpt>
      <trkpt lat="47.923588" lon="9.729121">
        <ele>578.225503</ele>
        <time>2026-07-29T07:02:22.969Z</time>
      </trkpt>
      <trkpt lat="47.923540" lon="9.729009">
        <ele>578.236861</ele>
        <time>2026-07-29T07:02:25.411Z</time>
      </trkpt>
      <trkpt lat="47.923450" lon="9.728799">
        <ele>578.258156</ele>
        <time>2026-07-29T07:02:30.028Z</time>
      </trkpt>
      <trkpt lat="47.923418" lon="9.728725">
        <ele>578.265680</ele>
        <time>2026-07-29T07:02:31.710Z</time>
      </trkpt>
      <trkpt lat="47.923281" lon="9.728404">
        <ele>578.298193</ele>
        <time>2026-07-29T07:02:37.564Z</time>
      </trkpt>
      <trkpt lat="47.919474" lon="9.719432">
        <ele>578.803377</ele>
        <time>2026-07-29T07:05:20.722Z</time>
      </trkpt>
      <trkpt lat="47.919254" lon="9.718904">
        <ele>578.527896</ele>
        <time>2026-07-29T07:05:28.292Z</time>
      </trkpt>
      <trkpt lat="47.919212" lon="9.718756">
        <ele>578.456682</ele>
        <time>2026-07-29T07:05:30.213Z</time>
      </trkpt>
      <trkpt lat="47.919207" lon="9.718606">
        <ele>578.390136</ele>
        <time>2026-07-29T07:05:32.028Z</time>
      </trkpt>
      <trkpt lat="47.920371" lon="9.715168">
        <ele>576.744290</ele>
        <time>2026-07-29T07:06:27.224Z</time>
      </trkpt>
      <trkpt lat="47.920493" lon="9.714315">
        <ele>575.933605</ele>
        <time>2026-07-29T07:06:39.150Z</time>
      </trkpt>
      <trkpt lat="47.920533" lon="9.713871">
        <ele>575.517213</ele>
        <time>2026-07-29T07:06:44.832Z</time>
      </trkpt>
      <trkpt lat="47.920664" lon="9.713401">
        <ele>575.044092</ele>
        <time>2026-07-29T07:06:51.095Z</time>
      </trkpt>
      <trkpt lat="47.921239" lon="9.710998">
        <ele>573.048261</ele>
        <time>2026-07-29T07:07:23.183Z</time>
      </trkpt>
      <trkpt lat="47.921435" lon="9.709983">
        <ele>572.501920</ele>
        <time>2026-07-29T07:07:40.665Z</time>
      </trkpt>
      <trkpt lat="47.921770" lon="9.708005">
        <ele>572.975612</ele>
        <time>2026-07-29T07:08:14.652Z</time>
      </trkpt>
      <trkpt lat="47.922112" lon="9.706706">
        <ele>573.171601</ele>
        <time>2026-07-29T07:08:37.606Z</time>
      </trkpt>
      <trkpt lat="47.923121" lon="9.703239">
        <ele>573.093469</ele>
        <time>2026-07-29T07:09:36.580Z</time>
      </trkpt>
      <trkpt lat="47.923157" lon="9.702823">
        <ele>573.042726</ele>
        <time>2026-07-29T07:09:42.608Z</time>
      </trkpt>
      <trkpt lat="47.923186" lon="9.698369">
        <ele>570.292670</ele>
        <time>2026-07-29T07:10:42.485Z</time>
      </trkpt>
      <trkpt lat="47.923170" lon="9.697924">
        <ele>570.026703</ele>
        <time>2026-07-29T07:10:48.443Z</time>
      </trkpt>
      <trkpt lat="47.923337" lon="9.696798">
        <ele>569.335035</ele>
        <time>2026-07-29T07:11:04.489Z</time>
      </trkpt>
      <trkpt lat="47.923388" lon="9.696609">
        <ele>569.212053</ele>
        <time>2026-07-29T07:11:07.440Z</time>
      </trkpt>
      <trkpt lat="47.923391" lon="9.696265">
        <ele>569.004397</ele>
        <time>2026-07-29T07:11:12.381Z</time>
      </trkpt>
      <trkpt lat="47.923385" lon="9.695719">
        <ele>568.674787</ele>
        <time>2026-07-29T07:11:19.577Z</time>
      </trkpt>
      <trkpt lat="47.923371" lon="9.695498">
        <ele>568.540797</ele>
        <time>2026-07-29T07:11:22.345Z</time>
      </trkpt>
      <trkpt lat="47.923340" lon="9.695181">
        <ele>568.347429</ele>
        <time>2026-07-29T07:11:26.272Z</time>
      </trkpt>
      <trkpt lat="47.923255" lon="9.694335">
        <ele>567.831414</ele>
        <time>2026-07-29T07:11:36.744Z</time>
      </trkpt>
      <trkpt lat="47.923211" lon="9.694111">
        <ele>567.690775</ele>
        <time>2026-07-29T07:11:39.739Z</time>
      </trkpt>
      <trkpt lat="47.923054" lon="9.693419">
        <ele>567.250598</ele>
        <time>2026-07-29T07:11:49.461Z</time>
      </trkpt>
      <trkpt lat="47.922943" lon="9.693141">
        <ele>567.055625</ele>
        <time>2026-07-29T07:11:53.890Z</time>
      </trkpt>
      <trkpt lat="47.922837" lon="9.692935">
        <ele>566.899140</ele>
        <time>2026-07-29T07:11:57.391Z</time>
      </trkpt>
      <trkpt lat="47.922585" lon="9.692600">
        <ele>566.595705</ele>
        <time>2026-07-29T07:12:03.995Z</time>
      </trkpt>
      <trkpt lat="47.922861" lon="9.692022">
        <ele>566.253525</ele>
        <time>2026-07-29T07:12:13.193Z</time>
      </trkpt>
      <trkpt lat="47.923587" lon="9.690676">
        <ele>565.597172</ele>
        <time>2026-07-29T07:12:36.980Z</time>
      </trkpt>
      <trkpt lat="47.925206" lon="9.687646">
        <ele>564.892345</ele>
        <time>2026-07-29T07:13:31.513Z</time>
      </trkpt>
      <trkpt lat="47.925319" lon="9.687398">
        <ele>564.942268</ele>
        <time>2026-07-29T07:13:36.172Z</time>
      </trkpt>
      <trkpt lat="47.925383" lon="9.687155">
        <ele>564.985730</ele>
        <time>2026-07-29T07:13:40.277Z</time>
      </trkpt>
      <trkpt lat="47.925473" lon="9.686585">
        <ele>565.083213</ele>
        <time>2026-07-29T07:13:49.584Z</time>
      </trkpt>
      <trkpt lat="47.925474" lon="9.686387">
        <ele>565.116173</ele>
        <time>2026-07-29T07:13:52.619Z</time>
      </trkpt>
      <trkpt lat="47.925414" lon="9.685689">
        <ele>565.233317</ele>
        <time>2026-07-29T07:14:04.073Z</time>
      </trkpt>
      <trkpt lat="47.925334" lon="9.685250">
        <ele>565.264755</ele>
        <time>2026-07-29T07:14:12.136Z</time>
      </trkpt>
      <trkpt lat="47.925336" lon="9.685056">
        <ele>565.277427</ele>
        <time>2026-07-29T07:14:15.589Z</time>
      </trkpt>
      <trkpt lat="47.925411" lon="9.684800">
        <ele>565.295675</ele>
        <time>2026-07-29T07:14:20.380Z</time>
      </trkpt>
      <trkpt lat="47.925423" lon="9.684676">
        <ele>565.303858</ele>
        <time>2026-07-29T07:14:22.427Z</time>
      </trkpt>
      <trkpt lat="47.925439" lon="9.684545">
        <ele>565.312555</ele>
        <time>2026-07-29T07:14:24.602Z</time>
      </trkpt>
      <trkpt lat="47.925657" lon="9.683885">
        <ele>565.360613</ele>
        <time>2026-07-29T07:14:35.243Z</time>
      </trkpt>
      <trkpt lat="47.925799" lon="9.683293">
        <ele>565.401680</ele>
        <time>2026-07-29T07:14:44.135Z</time>
      </trkpt>
      <trkpt lat="47.925844" lon="9.683164">
        <ele>565.411179</ele>
        <time>2026-07-29T07:14:46.295Z</time>
      </trkpt>
      <trkpt lat="47.926007" lon="9.682863">
        <ele>565.335388</ele>
        <time>2026-07-29T07:14:52.229Z</time>
      </trkpt>
      <trkpt lat="47.926269" lon="9.682360">
        <ele>565.208723</ele>
        <time>2026-07-29T07:15:02.225Z</time>
      </trkpt>
      <trkpt lat="47.926381" lon="9.681665">
        <ele>565.066605</ele>
        <time>2026-07-29T07:15:12.908Z</time>
      </trkpt>
      <trkpt lat="47.926463" lon="9.681385">
        <ele>565.005851</ele>
        <time>2026-07-29T07:15:17.393Z</time>
      </trkpt>
      <trkpt lat="47.926726" lon="9.681036">
        <ele>564.901430</ele>
        <time>2026-07-29T07:15:24.978Z</time>
      </trkpt>
      <trkpt lat="47.926986" lon="9.680761">
        <ele>564.495594</ele>
        <time>2026-07-29T07:15:31.478Z</time>
      </trkpt>
      <trkpt lat="47.927358" lon="9.680371">
        <ele>563.768667</ele>
        <time>2026-07-29T07:15:40.568Z</time>
      </trkpt>
      <trkpt lat="47.928041" lon="9.679926">
        <ele>562.577020</ele>
        <time>2026-07-29T07:15:54.163Z</time>
      </trkpt>
      <trkpt lat="47.928274" lon="9.679743">
        <ele>562.156012</ele>
        <time>2026-07-29T07:15:58.472Z</time>
      </trkpt>
      <trkpt lat="47.928354" lon="9.679629">
        <ele>561.969658</ele>
        <time>2026-07-29T07:16:00.243Z</time>
      </trkpt>
      <trkpt lat="47.928421" lon="9.679311">
        <ele>561.462876</ele>
        <time>2026-07-29T07:16:03.777Z</time>
      </trkpt>
      <trkpt lat="47.928538" lon="9.678954">
        <ele>560.858699</ele>
        <time>2026-07-29T07:16:08.120Z</time>
      </trkpt>
      <trkpt lat="47.928913" lon="9.678025">
        <ele>559.209896</ele>
        <time>2026-07-29T07:16:20.771Z</time>
      </trkpt>
      <trkpt lat="47.929148" lon="9.677385">
        <ele>558.100420</ele>
        <time>2026-07-29T07:16:29.422Z</time>
      </trkpt>
      <trkpt lat="47.929234" lon="9.676960">
        <ele>557.519287</ele>
        <time>2026-07-29T07:16:34.963Z</time>
      </trkpt>
      <trkpt lat="47.929326" lon="9.676736">
        <ele>557.195486</ele>
        <time>2026-07-29T07:16:38.334Z</time>
      </trkpt>
      <trkpt lat="47.929577" lon="9.676078">
        <ele>556.262337</ele>
        <time>2026-07-29T07:16:47.950Z</time>
      </trkpt>
      <trkpt lat="47.929657" lon="9.675716">
        <ele>555.792558</ele>
        <time>2026-07-29T07:16:52.390Z</time>
      </trkpt>
      <trkpt lat="47.929838" lon="9.674503">
        <ele>554.623522</ele>
        <time>2026-07-29T07:17:06.321Z</time>
      </trkpt>
      <trkpt lat="47.929923" lon="9.673974">
        <ele>554.644297</ele>
        <time>2026-07-29T07:17:13.144Z</time>
      </trkpt>
      <trkpt lat="47.929939" lon="9.673477">
        <ele>554.663300</ele>
        <time>2026-07-29T07:17:19.350Z</time>
      </trkpt>
      <trkpt lat="47.929902" lon="9.673190">
        <ele>554.674462</ele>
        <time>2026-07-29T07:17:23.071Z</time>
      </trkpt>
      <trkpt lat="47.929965" lon="9.673095">
        <ele>554.679566</ele>
        <time>2026-07-29T07:17:24.854Z</time>
      </trkpt>
      <trkpt lat="47.930176" lon="9.672606">
        <ele>554.701779</ele>
        <time>2026-07-29T07:17:35.373Z</time>
      </trkpt>
      <trkpt lat="47.930530" lon="9.671562">
        <ele>556.912871</ele>
        <time>2026-07-29T07:18:07.558Z</time>
      </trkpt>
      <trkpt lat="47.930922" lon="9.670333">
        <ele>560.560419</ele>
        <time>2026-07-29T07:18:47.125Z</time>
      </trkpt>
      <trkpt lat="47.931088" lon="9.669708">
        <ele>561.975785</ele>
        <time>2026-07-29T07:19:01.752Z</time>
      </trkpt>
      <trkpt lat="47.931388" lon="9.668758">
        <ele>562.391921</ele>
        <time>2026-07-29T07:19:23.947Z</time>
      </trkpt>
      <trkpt lat="47.931402" lon="9.668735">
        <ele>562.404234</ele>
        <time>2026-07-29T07:19:24.578Z</time>
      </trkpt>
      <trkpt lat="47.931500" lon="9.668581">
        <ele>562.488390</ele>
        <time>2026-07-29T07:19:28.767Z</time>
      </trkpt>
      <trkpt lat="47.931612" lon="9.668527">
        <ele>562.557994</ele>
        <time>2026-07-29T07:19:32.108Z</time>
      </trkpt>
      <trkpt lat="47.931640" lon="9.668483">
        <ele>562.582039</ele>
        <time>2026-07-29T07:19:33.227Z</time>
      </trkpt>
      <trkpt lat="47.932172" lon="9.669160">
        <ele>563.000803</ele>
        <time>2026-07-29T07:19:57.299Z</time>
      </trkpt>
      <trkpt lat="47.934157" lon="9.672161">
        <ele>565.787197</ele>
        <time>2026-07-29T07:21:52.763Z</time>
      </trkpt>
      <trkpt lat="47.935178" lon="9.673701">
        <ele>568.271358</ele>
        <time>2026-07-29T07:22:58.705Z</time>
      </trkpt>
      <trkpt lat="47.935387" lon="9.673907">
        <ele>568.776261</ele>
        <time>2026-07-29T07:23:09.710Z</time>
      </trkpt>
      <trkpt lat="47.935566" lon="9.674084">
        <ele>569.209114</ele>
        <time>2026-07-29T07:23:19.355Z</time>
      </trkpt>
      <trkpt lat="47.935996" lon="9.674331">
        <ele>570.137937</ele>
        <time>2026-07-29T07:23:41.550Z</time>
      </trkpt>
      <trkpt lat="47.936147" lon="9.674516">
        <ele>570.535579</ele>
        <time>2026-07-29T07:23:50.382Z</time>
      </trkpt>
      <trkpt lat="47.936483" lon="9.675122">
        <ele>571.646794</ele>
        <time>2026-07-29T07:24:11.369Z</time>
      </trkpt>
      <trkpt lat="47.936608" lon="9.675243">
        <ele>571.960939</ele>
        <time>2026-07-29T07:24:17.618Z</time>
      </trkpt>
      <trkpt lat="47.936760" lon="9.675334">
        <ele>572.306262</ele>
        <time>2026-07-29T07:24:25.209Z</time>
      </trkpt>
      <trkpt lat="47.936857" lon="9.675354">
        <ele>572.512736</ele>
        <time>2026-07-29T07:24:30.178Z</time>
      </trkpt>
      <trkpt lat="47.937286" lon="9.675447">
        <ele>573.426806</ele>
        <time>2026-07-29T07:24:54.896Z</time>
      </trkpt>
      <trkpt lat="47.937492" lon="9.675677">
        <ele>573.969242</ele>
        <time>2026-07-29T07:25:08.718Z</time>
      </trkpt>
      <trkpt lat="47.937612" lon="9.675917">
        <ele>574.119162</ele>
        <time>2026-07-29T07:25:17.377Z</time>
      </trkpt>
      <trkpt lat="47.939086" lon="9.673597">
        <ele>570.467243</ele>
        <time>2026-07-29T07:25:58.295Z</time>
      </trkpt>
      <trkpt lat="47.939914" lon="9.672294">
        <ele>568.397126</ele>
        <time>2026-07-29T07:26:21.540Z</time>
      </trkpt>
      <trkpt lat="47.941145" lon="9.670502">
        <ele>568.461479</ele>
        <time>2026-07-29T07:27:13.732Z</time>
      </trkpt>
      <trkpt lat="47.942540" lon="9.668397">
        <ele>565.334635</ele>
        <time>2026-07-29T07:27:51.270Z</time>
      </trkpt>
      <trkpt lat="47.942853" lon="9.667950">
        <ele>565.441412</ele>
        <time>2026-07-29T07:28:04.592Z</time>
      </trkpt>
      <trkpt lat="47.943517" lon="9.666578">
        <ele>566.216599</ele>
        <time>2026-07-29T07:28:39.566Z</time>
      </trkpt>
      <trkpt lat="47.944516" lon="9.666276">
        <ele>566.278103</ele>
        <time>2026-07-29T07:29:03.852Z</time>
      </trkpt>
      <trkpt lat="47.944703" lon="9.665809">
        <ele>566.202458</ele>
        <time>2026-07-29T07:29:16.828Z</time>
      </trkpt>
      <trkpt lat="47.944764" lon="9.665556">
        <ele>566.165074</ele>
        <time>2026-07-29T07:29:23.435Z</time>
      </trkpt>
      <trkpt lat="47.944804" lon="9.665274">
        <ele>566.124998</ele>
        <time>2026-07-29T07:29:30.523Z</time>
      </trkpt>
      <trkpt lat="47.944773" lon="9.665064">
        <ele>566.095101</ele>
        <time>2026-07-29T07:29:35.842Z</time>
      </trkpt>
      <trkpt lat="47.944470" lon="9.664019">
        <ele>565.960050</ele>
        <time>2026-07-29T07:30:02.551Z</time>
      </trkpt>
      <trkpt lat="47.944441" lon="9.663777">
        <ele>565.932727</ele>
        <time>2026-07-29T07:30:08.333Z</time>
      </trkpt>
      <trkpt lat="47.945331" lon="9.663378">
        <ele>565.778546</ele>
        <time>2026-07-29T07:30:42.909Z</time>
      </trkpt>
      <trkpt lat="47.945551" lon="9.663224">
        <ele>565.743497</ele>
        <time>2026-07-29T07:30:52.003Z</time>
      </trkpt>
      <trkpt lat="47.945790" lon="9.662980">
        <ele>565.711178</ele>
        <time>2026-07-29T07:31:02.730Z</time>
      </trkpt>
      <trkpt lat="47.946140" lon="9.662803">
        <ele>565.669931</ele>
        <time>2026-07-29T07:31:16.609Z</time>
      </trkpt>
      <trkpt lat="47.946414" lon="9.662405">
        <ele>565.627259</ele>
        <time>2026-07-29T07:31:31.386Z</time>
      </trkpt>
      <trkpt lat="47.946473" lon="9.662110">
        <ele>565.604241</ele>
        <time>2026-07-29T07:31:39.608Z</time>
      </trkpt>
      <trkpt lat="47.946639" lon="9.661525">
        <ele>565.556740</ele>
        <time>2026-07-29T07:31:55.367Z</time>
      </trkpt>
      <trkpt lat="47.947605" lon="9.663789">
        <ele>562.127883</ele>
        <time>2026-07-29T07:32:26.598Z</time>
      </trkpt>
      <trkpt lat="47.947734" lon="9.664000">
        <ele>561.987501</ele>
        <time>2026-07-29T07:32:29.739Z</time>
      </trkpt>
      <trkpt lat="47.948157" lon="9.664162">
        <ele>561.761496</ele>
        <time>2026-07-29T07:32:37.185Z</time>
      </trkpt>
      <trkpt lat="47.948544" lon="9.664307">
        <ele>561.555000</ele>
        <time>2026-07-29T07:32:45.221Z</time>
      </trkpt>
      <trkpt lat="47.949131" lon="9.664533">
        <ele>561.241269</ele>
        <time>2026-07-29T07:33:01.137Z</time>
      </trkpt>
      <trkpt lat="47.949849" lon="9.664629">
        <ele>561.115487</ele>
        <time>2026-07-29T07:33:20.903Z</time>
      </trkpt>
      <trkpt lat="47.949990" lon="9.664742">
        <ele>561.107856</ele>
        <time>2026-07-29T07:33:24.546Z</time>
      </trkpt>
      <trkpt lat="47.950108" lon="9.665239">
        <ele>561.091015</ele>
        <time>2026-07-29T07:33:31.611Z</time>
      </trkpt>
      <trkpt lat="47.950223" lon="9.665592">
        <ele>561.078478</ele>
        <time>2026-07-29T07:33:36.505Z</time>
      </trkpt>
      <trkpt lat="47.950499" lon="9.665954">
        <ele>561.060960</ele>
        <time>2026-07-29T07:33:43.636Z</time>
      </trkpt>
      <trkpt lat="47.950798" lon="9.666201">
        <ele>561.054626</ele>
        <time>2026-07-29T07:33:50.761Z</time>
      </trkpt>
      <trkpt lat="47.950950" lon="9.666251">
        <ele>561.054486</ele>
        <time>2026-07-29T07:33:54.182Z</time>
      </trkpt>
      <trkpt lat="47.951257" lon="9.666256">
        <ele>561.054211</ele>
        <time>2026-07-29T07:34:01.385Z</time>
      </trkpt>
      <trkpt lat="47.951265" lon="9.666256">
        <ele>561.054204</ele>
        <time>2026-07-29T07:34:01.577Z</time>
      </trkpt>
      <trkpt lat="47.951359" lon="9.666178">
        <ele>561.054107</ele>
        <time>2026-07-29T07:34:04.138Z</time>
      </trkpt>
      <trkpt lat="47.951566" lon="9.665847">
        <ele>561.053835</ele>
        <time>2026-07-29T07:34:11.132Z</time>
      </trkpt>
      <trkpt lat="47.951824" lon="9.665573">
        <ele>561.053551</ele>
        <time>2026-07-29T07:34:18.594Z</time>
      </trkpt>
      <trkpt lat="47.951981" lon="9.665416">
        <ele>561.053381</ele>
        <time>2026-07-29T07:34:22.797Z</time>
      </trkpt>
      <trkpt lat="47.952229" lon="9.665142">
        <ele>561.037230</ele>
        <time>2026-07-29T07:34:29.338Z</time>
      </trkpt>
      <trkpt lat="47.952420" lon="9.664947">
        <ele>561.003583</ele>
        <time>2026-07-29T07:34:34.440Z</time>
      </trkpt>
      <trkpt lat="47.952379" lon="9.664765">
        <ele>560.984882</ele>
        <time>2026-07-29T07:34:37.373Z</time>
      </trkpt>
      <trkpt lat="47.952156" lon="9.664381">
        <ele>560.935382</ele>
        <time>2026-07-29T07:34:45.576Z</time>
      </trkpt>
      <trkpt lat="47.951955" lon="9.664046">
        <ele>560.891578</ele>
        <time>2026-07-29T07:34:52.429Z</time>
      </trkpt>
      <trkpt lat="47.951897" lon="9.663886">
        <ele>560.873859</ele>
        <time>2026-07-29T07:34:54.778Z</time>
      </trkpt>
      <trkpt lat="47.951878" lon="9.663622">
        <ele>560.847999</ele>
        <time>2026-07-29T07:34:57.982Z</time>
      </trkpt>
      <trkpt lat="47.952004" lon="9.663036">
        <ele>560.781825</ele>
        <time>2026-07-29T07:35:05.660Z</time>
      </trkpt>
      <trkpt lat="47.952201" lon="9.662266">
        <ele>560.562292</ele>
        <time>2026-07-29T07:35:20.626Z</time>
      </trkpt>
      <trkpt lat="47.952382" lon="9.661681">
        <ele>560.390663</ele>
        <time>2026-07-29T07:35:32.172Z</time>
      </trkpt>
      <trkpt lat="47.952734" lon="9.660711">
        <ele>560.096833</ele>
        <time>2026-07-29T07:35:45.665Z</time>
      </trkpt>
      <trkpt lat="47.952782" lon="9.660714">
        <ele>560.077729</ele>
        <time>2026-07-29T07:35:46.507Z</time>
      </trkpt>
      <trkpt lat="47.952835" lon="9.660322">
        <ele>560.032110</ele>
        <time>2026-07-29T07:35:51.211Z</time>
      </trkpt>
      <trkpt lat="47.952971" lon="9.659868">
        <ele>559.976339</ele>
        <time>2026-07-29T07:35:57.188Z</time>
      </trkpt>
      <trkpt lat="47.953077" lon="9.659942">
        <ele>559.956746</ele>
        <time>2026-07-29T07:35:59.385Z</time>
      </trkpt>
      <trkpt lat="47.953307" lon="9.659859">
        <ele>559.917127</ele>
        <time>2026-07-29T07:36:04.486Z</time>
      </trkpt>
      <trkpt lat="47.953427" lon="9.659886">
        <ele>559.896808</ele>
        <time>2026-07-29T07:36:07.507Z</time>
      </trkpt>
      <trkpt lat="47.953637" lon="9.660027">
        <ele>559.858255</ele>
        <time>2026-07-29T07:36:13.786Z</time>
      </trkpt>
      <trkpt lat="47.954136" lon="9.660503">
        <ele>559.757327</ele>
        <time>2026-07-29T07:36:31.031Z</time>
      </trkpt>
      <trkpt lat="47.954519" lon="9.660967">
        <ele>559.665614</ele>
        <time>2026-07-29T07:36:42.560Z</time>
      </trkpt>
      <trkpt lat="47.954818" lon="9.661408">
        <ele>559.587463</ele>
        <time>2026-07-29T07:36:51.124Z</time>
      </trkpt>
      <trkpt lat="47.955208" lon="9.662093">
        <ele>559.475496</ele>
        <time>2026-07-29T07:37:03.620Z</time>
      </trkpt>
      <trkpt lat="47.955351" lon="9.662392">
        <ele>559.388357</ele>
        <time>2026-07-29T07:37:08.519Z</time>
      </trkpt>
      <trkpt lat="47.955354" lon="9.662400">
        <ele>559.382933</ele>
        <time>2026-07-29T07:37:08.629Z</time>
      </trkpt>
      <trkpt lat="47.955441" lon="9.662649">
        <ele>559.216780</ele>
        <time>2026-07-29T07:37:12.151Z</time>
      </trkpt>
      <trkpt lat="47.955723" lon="9.663587">
        <ele>558.608505</ele>
        <time>2026-07-29T07:37:24.112Z</time>
      </trkpt>
      <trkpt lat="47.955833" lon="9.663897">
        <ele>558.400955</ele>
        <time>2026-07-29T07:37:28.424Z</time>
      </trkpt>
      <trkpt lat="47.956011" lon="9.664408">
        <ele>558.060199</ele>
        <time>2026-07-29T07:37:36.596Z</time>
      </trkpt>
      <trkpt lat="47.956060" lon="9.664354">
        <ele>558.006401</ele>
        <time>2026-07-29T07:37:38.187Z</time>
      </trkpt>
      <trkpt lat="47.956393" lon="9.663925">
        <ele>557.649223</ele>
        <time>2026-07-29T07:37:50.331Z</time>
      </trkpt>
      <trkpt lat="47.956567" lon="9.663591">
        <ele>557.432411</ele>
        <time>2026-07-29T07:37:57.577Z</time>
      </trkpt>
      <trkpt lat="47.957350" lon="9.661729">
        <ele>556.051976</ele>
        <time>2026-07-29T07:38:25.313Z</time>
      </trkpt>
      <trkpt lat="47.957598" lon="9.661227">
        <ele>555.254639</ele>
        <time>2026-07-29T07:38:31.991Z</time>
      </trkpt>
      <trkpt lat="47.957915" lon="9.660727">
        <ele>554.374593</ele>
        <time>2026-07-29T07:38:39.488Z</time>
      </trkpt>
      <trkpt lat="47.958057" lon="9.660602">
        <ele>554.059983</ele>
        <time>2026-07-29T07:38:42.294Z</time>
      </trkpt>
      <trkpt lat="47.958050" lon="9.660451">
        <ele>553.866520</ele>
        <time>2026-07-29T07:38:45.446Z</time>
      </trkpt>
      <trkpt lat="47.957854" lon="9.659969">
        <ele>553.145769</ele>
        <time>2026-07-29T07:38:58.206Z</time>
      </trkpt>
      <trkpt lat="47.957260" lon="9.658753">
        <ele>552.350300</ele>
        <time>2026-07-29T07:39:39.545Z</time>
      </trkpt>
      <trkpt lat="47.957226" lon="9.658625">
        <ele>552.283356</ele>
        <time>2026-07-29T07:39:43.228Z</time>
      </trkpt>
      <trkpt lat="47.957224" lon="9.658486">
        <ele>552.215765</ele>
        <time>2026-07-29T07:39:46.698Z</time>
      </trkpt>
      <trkpt lat="47.957316" lon="9.658153">
        <ele>552.040641</ele>
        <time>2026-07-29T07:39:54.895Z</time>
      </trkpt>
      <trkpt lat="47.957833" lon="9.655859">
        <ele>548.542736</ele>
        <time>2026-07-29T07:40:24.361Z</time>
      </trkpt>
      <trkpt lat="47.957916" lon="9.655420">
        <ele>547.731482</ele>
        <time>2026-07-29T07:40:30.745Z</time>
      </trkpt>
      <trkpt lat="47.958074" lon="9.654172">
        <ele>545.943552</ele>
        <time>2026-07-29T07:40:48.712Z</time>
      </trkpt>
      <trkpt lat="47.958142" lon="9.653940">
        <ele>545.635701</ele>
        <time>2026-07-29T07:40:52.024Z</time>
      </trkpt>
      <trkpt lat="47.958483" lon="9.653584">
        <ele>544.880432</ele>
        <time>2026-07-29T07:40:59.944Z</time>
      </trkpt>
      <trkpt lat="47.958705" lon="9.653258">
        <ele>544.315245</ele>
        <time>2026-07-29T07:41:05.870Z</time>
      </trkpt>
      <trkpt lat="47.958799" lon="9.653106">
        <ele>544.063739</ele>
        <time>2026-07-29T07:41:08.217Z</time>
      </trkpt>
      <trkpt lat="47.958990" lon="9.652799">
        <ele>543.669918</ele>
        <time>2026-07-29T07:41:13.248Z</time>
      </trkpt>
      <trkpt lat="47.959044" lon="9.652743">
        <ele>543.648205</ele>
        <time>2026-07-29T07:41:14.529Z</time>
      </trkpt>
      <trkpt lat="47.959093" lon="9.652736">
        <ele>543.631948</ele>
        <time>2026-07-29T07:41:15.536Z</time>
      </trkpt>
      <trkpt lat="47.959569" lon="9.652661">
        <ele>543.473871</ele>
        <time>2026-07-29T07:41:27.031Z</time>
      </trkpt>
      <trkpt lat="47.959879" lon="9.652466">
        <ele>543.362777</ele>
        <time>2026-07-29T07:41:34.913Z</time>
      </trkpt>
      <trkpt lat="47.959918" lon="9.652399">
        <ele>543.343144</ele>
        <time>2026-07-29T07:41:36.261Z</time>
      </trkpt>
      <trkpt lat="47.959996" lon="9.652342">
        <ele>543.314464</ele>
        <time>2026-07-29T07:41:38.165Z</time>
      </trkpt>
      <trkpt lat="47.960053" lon="9.652229">
        <ele>543.283176</ele>
        <time>2026-07-29T07:41:40.179Z</time>
      </trkpt>
      <trkpt lat="47.960076" lon="9.652116">
        <ele>543.257056</ele>
        <time>2026-07-29T07:41:41.831Z</time>
      </trkpt>
      <trkpt lat="47.960123" lon="9.651881">
        <ele>543.202815</ele>
        <time>2026-07-29T07:41:45.170Z</time>
      </trkpt>
      <trkpt lat="47.960162" lon="9.651660">
        <ele>543.152271</ele>
        <time>2026-07-29T07:41:48.314Z</time>
      </trkpt>
      <trkpt lat="47.960208" lon="9.651381">
        <ele>543.097630</ele>
        <time>2026-07-29T07:41:52.422Z</time>
      </trkpt>
      <trkpt lat="47.960219" lon="9.651168">
        <ele>543.083074</ele>
        <time>2026-07-29T07:41:55.436Z</time>
      </trkpt>
      <trkpt lat="47.960181" lon="9.650998">
        <ele>543.070862</ele>
        <time>2026-07-29T07:41:58.072Z</time>
      </trkpt>
      <trkpt lat="47.959994" lon="9.650694">
        <ele>543.042735</ele>
        <time>2026-07-29T07:42:04.184Z</time>
      </trkpt>
      <trkpt lat="47.959945" lon="9.650552">
        <ele>543.031850</ele>
        <time>2026-07-29T07:42:06.529Z</time>
      </trkpt>
      <trkpt lat="47.960213" lon="9.649261">
        <ele>542.939752</ele>
        <time>2026-07-29T07:42:24.576Z</time>
      </trkpt>
      <trkpt lat="47.960259" lon="9.649057">
        <ele>542.925085</ele>
        <time>2026-07-29T07:42:28.051Z</time>
      </trkpt>
      <trkpt lat="47.960574" lon="9.647531">
        <ele>544.513805</ele>
        <time>2026-07-29T07:42:59.537Z</time>
      </trkpt>
      <trkpt lat="47.960681" lon="9.647056">
        <ele>545.046292</ele>
        <time>2026-07-29T07:43:10.770Z</time>
      </trkpt>
      <trkpt lat="47.960692" lon="9.647007">
        <ele>545.101203</ele>
        <time>2026-07-29T07:43:11.905Z</time>
      </trkpt>
      <trkpt lat="47.960731" lon="9.646826">
        <ele>545.303229</ele>
        <time>2026-07-29T07:43:15.991Z</time>
      </trkpt>
      <trkpt lat="47.960759" lon="9.646644">
        <ele>545.501645</ele>
        <time>2026-07-29T07:43:19.828Z</time>
      </trkpt>
      <trkpt lat="47.960745" lon="9.646494">
        <ele>545.662563</ele>
        <time>2026-07-29T07:43:22.788Z</time>
      </trkpt>
      <trkpt lat="47.960034" lon="9.646283">
        <ele>546.137498</ele>
        <time>2026-07-29T07:43:40.047Z</time>
      </trkpt>
      <trkpt lat="47.958578" lon="9.645760">
        <ele>546.791497</ele>
        <time>2026-07-29T07:44:15.257Z</time>
      </trkpt>
      <trkpt lat="47.958234" lon="9.645529">
        <ele>546.810257</ele>
        <time>2026-07-29T07:44:24.068Z</time>
      </trkpt>
      <trkpt lat="47.957634" lon="9.645268">
        <ele>546.841339</ele>
        <time>2026-07-29T07:44:38.086Z</time>
      </trkpt>
      <trkpt lat="47.956636" lon="9.644922">
        <ele>546.848759</ele>
        <time>2026-07-29T07:44:59.788Z</time>
      </trkpt>
      <trkpt lat="47.954977" lon="9.644280">
        <ele>547.119867</ele>
        <time>2026-07-29T07:45:38.157Z</time>
      </trkpt>
      <trkpt lat="47.954366" lon="9.644068">
        <ele>547.499876</ele>
        <time>2026-07-29T07:45:55.203Z</time>
      </trkpt>
      <trkpt lat="47.954294" lon="9.644046">
        <ele>547.544398</ele>
        <time>2026-07-29T07:45:57.308Z</time>
      </trkpt>
      <trkpt lat="47.954250" lon="9.644032">
        <ele>547.571651</ele>
        <time>2026-07-29T07:45:58.549Z</time>
      </trkpt>
      <trkpt lat="47.953983" lon="9.643942">
        <ele>547.737472</ele>
        <time>2026-07-29T07:46:05.700Z</time>
      </trkpt>
      <trkpt lat="47.953530" lon="9.643775">
        <ele>547.811783</ele>
        <time>2026-07-29T07:46:16.806Z</time>
      </trkpt>
      <trkpt lat="47.953983" lon="9.643942">
        <ele>547.569342</ele>
        <time>2026-07-29T07:46:26.558Z</time>
      </trkpt>
      <trkpt lat="47.954250" lon="9.644032">
        <ele>547.427120</ele>
        <time>2026-07-29T07:46:31.837Z</time>
      </trkpt>
      <trkpt lat="47.954294" lon="9.644046">
        <ele>547.403745</ele>
        <time>2026-07-29T07:46:32.669Z</time>
      </trkpt>
      <trkpt lat="47.954366" lon="9.644068">
        <ele>547.365560</ele>
        <time>2026-07-29T07:46:34.031Z</time>
      </trkpt>
      <trkpt lat="47.954977" lon="9.644280">
        <ele>547.039633</ele>
        <time>2026-07-29T07:46:45.835Z</time>
      </trkpt>
      <trkpt lat="47.956636" lon="9.644922">
        <ele>546.827162</ele>
        <time>2026-07-29T07:47:23.693Z</time>
      </trkpt>
      <trkpt lat="47.957634" lon="9.645268">
        <ele>546.834832</ele>
        <time>2026-07-29T07:47:47.669Z</time>
      </trkpt>
      <trkpt lat="47.958234" lon="9.645529">
        <ele>546.855790</ele>
        <time>2026-07-29T07:48:01.438Z</time>
      </trkpt>
      <trkpt lat="47.958578" lon="9.645760">
        <ele>546.861896</ele>
        <time>2026-07-29T07:48:09.464Z</time>
      </trkpt>
      <trkpt lat="47.960034" lon="9.646283">
        <ele>546.290820</ele>
        <time>2026-07-29T07:48:41.025Z</time>
      </trkpt>
      <trkpt lat="47.960745" lon="9.646494">
        <ele>545.478180</ele>
        <time>2026-07-29T07:48:56.163Z</time>
      </trkpt>
      <trkpt lat="47.960759" lon="9.646644">
        <ele>545.315791</ele>
        <time>2026-07-29T07:48:57.981Z</time>
      </trkpt>
      <trkpt lat="47.960731" lon="9.646826">
        <ele>545.115562</ele>
        <time>2026-07-29T07:49:00.169Z</time>
      </trkpt>
      <trkpt lat="47.960692" lon="9.647007">
        <ele>544.911690</ele>
        <time>2026-07-29T07:49:02.335Z</time>
      </trkpt>
      <trkpt lat="47.960681" lon="9.647056">
        <ele>544.856277</ele>
        <time>2026-07-29T07:49:02.916Z</time>
      </trkpt>
      <trkpt lat="47.960574" lon="9.647531">
        <ele>544.318923</ele>
        <time>2026-07-29T07:49:08.514Z</time>
      </trkpt>
      <trkpt lat="47.960259" lon="9.649057">
        <ele>543.223618</ele>
        <time>2026-07-29T07:49:27.612Z</time>
      </trkpt>
      <trkpt lat="47.960213" lon="9.649261">
        <ele>543.197593</ele>
        <time>2026-07-29T07:49:30.590Z</time>
      </trkpt>
      <trkpt lat="47.959945" lon="9.650552">
        <ele>543.034178</ele>
        <time>2026-07-29T07:49:53.326Z</time>
      </trkpt>
      <trkpt lat="47.959994" lon="9.650694">
        <ele>543.014864</ele>
        <time>2026-07-29T07:49:55.737Z</time>
      </trkpt>
      <trkpt lat="47.960181" lon="9.650998">
        <ele>542.990812</ele>
        <time>2026-07-29T07:50:01.929Z</time>
      </trkpt>
      <trkpt lat="47.960219" lon="9.651168">
        <ele>543.014618</ele>
        <time>2026-07-29T07:50:04.642Z</time>
      </trkpt>
      <trkpt lat="47.960208" lon="9.651381">
        <ele>543.042994</ele>
        <time>2026-07-29T07:50:07.985Z</time>
      </trkpt>
      <trkpt lat="47.960162" lon="9.651660">
        <ele>543.081159</ele>
        <time>2026-07-29T07:50:12.454Z</time>
      </trkpt>
      <trkpt lat="47.960123" lon="9.651881">
        <ele>543.111516</ele>
        <time>2026-07-29T07:50:16.153Z</time>
      </trkpt>
      <trkpt lat="47.960076" lon="9.652116">
        <ele>543.144093</ele>
        <time>2026-07-29T07:50:20.158Z</time>
      </trkpt>
      <trkpt lat="47.960053" lon="9.652229">
        <ele>543.159781</ele>
        <time>2026-07-29T07:50:22.061Z</time>
      </trkpt>
      <trkpt lat="47.959996" lon="9.652342">
        <ele>543.178572</ele>
        <time>2026-07-29T07:50:24.294Z</time>
      </trkpt>
      <trkpt lat="47.959918" lon="9.652399">
        <ele>543.195797</ele>
        <time>2026-07-29T07:50:26.272Z</time>
      </trkpt>
      <trkpt lat="47.959698" lon="9.652437">
        <ele>543.239726</ele>
        <time>2026-07-29T07:50:31.109Z</time>
      </trkpt>
      <trkpt lat="47.959612" lon="9.652510">
        <ele>543.259347</ele>
        <time>2026-07-29T07:50:33.241Z</time>
      </trkpt>
      <trkpt lat="47.959566" lon="9.652576">
        <ele>543.272001</ele>
        <time>2026-07-29T07:50:34.559Z</time>
      </trkpt>
      <trkpt lat="47.959569" lon="9.652661">
        <ele>543.283307</ele>
        <time>2026-07-29T07:50:35.715Z</time>
      </trkpt>
      <trkpt lat="47.959093" lon="9.652736">
        <ele>543.692433</ele>
        <time>2026-07-29T07:50:45.590Z</time>
      </trkpt>
      <trkpt lat="47.959044" lon="9.652743">
        <ele>543.771596</ele>
        <time>2026-07-29T07:50:46.792Z</time>
      </trkpt>
      <trkpt lat="47.958990" lon="9.652799">
        <ele>543.877327</ele>
        <time>2026-07-29T07:50:48.493Z</time>
      </trkpt>
      <trkpt lat="47.958799" lon="9.653106">
        <ele>544.328625</ele>
        <time>2026-07-29T07:50:56.677Z</time>
      </trkpt>
      <trkpt lat="47.958705" lon="9.653258">
        <ele>544.551449</ele>
        <time>2026-07-29T07:51:01.232Z</time>
      </trkpt>
      <trkpt lat="47.958483" lon="9.653584">
        <ele>545.052182</ele>
        <time>2026-07-29T07:51:12.203Z</time>
      </trkpt>
      <trkpt lat="47.958142" lon="9.653940">
        <ele>545.721321</ele>
        <time>2026-07-29T07:51:26.825Z</time>
      </trkpt>
      <trkpt lat="47.958074" lon="9.654172">
        <ele>545.994065</ele>
        <time>2026-07-29T07:51:32.545Z</time>
      </trkpt>
      <trkpt lat="47.957916" lon="9.655420">
        <ele>547.893184</ele>
        <time>2026-07-29T07:51:57.849Z</time>
      </trkpt>
      <trkpt lat="47.957833" lon="9.655859">
        <ele>548.614346</ele>
        <time>2026-07-29T07:52:07.056Z</time>
      </trkpt>
      <trkpt lat="47.957316" lon="9.658153">
        <ele>551.671841</ele>
        <time>2026-07-29T07:53:09.723Z</time>
      </trkpt>
      <trkpt lat="47.957224" lon="9.658486">
        <ele>552.018799</ele>
        <time>2026-07-29T07:53:19.589Z</time>
      </trkpt>
      <trkpt lat="47.957226" lon="9.658625">
        <ele>552.152711</ele>
        <time>2026-07-29T07:53:22.984Z</time>
      </trkpt>
      <trkpt lat="47.957260" lon="9.658753">
        <ele>552.285341</ele>
        <time>2026-07-29T07:53:26.197Z</time>
      </trkpt>
      <trkpt lat="47.957854" lon="9.659969">
        <ele>553.329103</ele>
        <time>2026-07-29T07:54:00.259Z</time>
      </trkpt>
      <trkpt lat="47.958050" lon="9.660451">
        <ele>553.545765</ele>
        <time>2026-07-29T07:54:16.298Z</time>
      </trkpt>
      <trkpt lat="47.958057" lon="9.660602">
        <ele>553.603921</ele>
        <time>2026-07-29T07:54:20.841Z</time>
      </trkpt>
      <trkpt lat="47.958167" lon="9.660690">
        <ele>553.675519</ele>
        <time>2026-07-29T07:54:24.523Z</time>
      </trkpt>
      <trkpt lat="47.958703" lon="9.661288">
        <ele>554.059397</ele>
        <time>2026-07-29T07:54:42.098Z</time>
      </trkpt>
      <trkpt lat="47.960146" lon="9.662945">
        <ele>555.132014</ele>
        <time>2026-07-29T07:55:27.867Z</time>
      </trkpt>
      <trkpt lat="47.960727" lon="9.663595">
        <ele>554.837040</ele>
        <time>2026-07-29T07:55:42.731Z</time>
      </trkpt>
      <trkpt lat="47.960994" lon="9.663827">
        <ele>554.696138</ele>
        <time>2026-07-29T07:55:49.231Z</time>
      </trkpt>
      <trkpt lat="47.961222" lon="9.664024">
        <ele>554.575988</ele>
        <time>2026-07-29T07:55:54.685Z</time>
      </trkpt>
      <trkpt lat="47.961401" lon="9.664114">
        <ele>554.489837</ele>
        <time>2026-07-29T07:55:58.475Z</time>
      </trkpt>
      <trkpt lat="47.962444" lon="9.664607">
        <ele>553.793240</ele>
        <time>2026-07-29T07:56:19.604Z</time>
      </trkpt>
      <trkpt lat="47.962663" lon="9.664658">
        <ele>553.633585</ele>
        <time>2026-07-29T07:56:23.968Z</time>
      </trkpt>
      <trkpt lat="47.963839" lon="9.664509">
        <ele>553.135018</ele>
        <time>2026-07-29T07:56:47.952Z</time>
      </trkpt>
      <trkpt lat="47.963969" lon="9.664576">
        <ele>553.173637</ele>
        <time>2026-07-29T07:56:51.016Z</time>
      </trkpt>
      <trkpt lat="47.964036" lon="9.664744">
        <ele>553.210405</ele>
        <time>2026-07-29T07:56:54.049Z</time>
      </trkpt>
      <trkpt lat="47.964167" lon="9.665368">
        <ele>553.333369</ele>
        <time>2026-07-29T07:57:04.982Z</time>
      </trkpt>
      <trkpt lat="47.964306" lon="9.666206">
        <ele>553.495702</ele>
        <time>2026-07-29T07:57:20.649Z</time>
      </trkpt>
      <trkpt lat="47.964375" lon="9.666344">
        <ele>553.528087</ele>
        <time>2026-07-29T07:57:23.610Z</time>
      </trkpt>
      <trkpt lat="47.964493" lon="9.666344">
        <ele>553.451755</ele>
        <time>2026-07-29T07:57:26.438Z</time>
      </trkpt>
      <trkpt lat="47.964782" lon="9.666243">
        <ele>553.072714</ele>
        <time>2026-07-29T07:57:32.764Z</time>
      </trkpt>
      <trkpt lat="47.966554" lon="9.665331">
        <ele>551.285103</ele>
        <time>2026-07-29T07:58:06.096Z</time>
      </trkpt>
      <trkpt lat="47.967242" lon="9.665099">
        <ele>551.349774</ele>
        <time>2026-07-29T07:58:19.046Z</time>
      </trkpt>
      <trkpt lat="47.967450" lon="9.665093">
        <ele>551.368849</ele>
        <time>2026-07-29T07:58:24.044Z</time>
      </trkpt>
      <trkpt lat="47.967647" lon="9.665202">
        <ele>551.388112</ele>
        <time>2026-07-29T07:58:30.485Z</time>
      </trkpt>
      <trkpt lat="47.967729" lon="9.665286">
        <ele>551.397229</ele>
        <time>2026-07-29T07:58:34.056Z</time>
      </trkpt>
      <trkpt lat="47.967835" lon="9.665413">
        <ele>551.414784</ele>
        <time>2026-07-29T07:58:39.380Z</time>
      </trkpt>
      <trkpt lat="47.967969" lon="9.665691">
        <ele>551.849691</ele>
        <time>2026-07-29T07:58:49.247Z</time>
      </trkpt>
      <trkpt lat="47.968085" lon="9.666064">
        <ele>552.371854</ele>
        <time>2026-07-29T07:59:01.832Z</time>
      </trkpt>
      <trkpt lat="47.968299" lon="9.667025">
        <ele>553.657674</ele>
        <time>2026-07-29T07:59:27.520Z</time>
      </trkpt>
      <trkpt lat="47.968358" lon="9.667057">
        <ele>553.776701</ele>
        <time>2026-07-29T07:59:28.672Z</time>
      </trkpt>
      <trkpt lat="47.968602" lon="9.667078">
        <ele>554.240154</ele>
        <time>2026-07-29T07:59:32.796Z</time>
      </trkpt>
      <trkpt lat="47.968711" lon="9.667100">
        <ele>554.448725</ele>
        <time>2026-07-29T07:59:34.521Z</time>
      </trkpt>
      <trkpt lat="47.968755" lon="9.667105">
        <ele>554.532401</ele>
        <time>2026-07-29T07:59:35.203Z</time>
      </trkpt>
      <trkpt lat="47.968855" lon="9.667193">
        <ele>554.752492</ele>
        <time>2026-07-29T07:59:37.005Z</time>
      </trkpt>
      <trkpt lat="47.968874" lon="9.667322">
        <ele>554.918261</ele>
        <time>2026-07-29T07:59:38.438Z</time>
      </trkpt>
      <trkpt lat="47.968869" lon="9.667523">
        <ele>555.168713</ele>
        <time>2026-07-29T07:59:40.796Z</time>
      </trkpt>
      <trkpt lat="47.968723" lon="9.668669">
        <ele>556.621283</ele>
        <time>2026-07-29T08:00:01.798Z</time>
      </trkpt>
      <trkpt lat="47.968713" lon="9.668949">
        <ele>556.970427</ele>
        <time>2026-07-29T08:00:08.407Z</time>
      </trkpt>
      <trkpt lat="47.968733" lon="9.669085">
        <ele>557.143807</ele>
        <time>2026-07-29T08:00:12.022Z</time>
      </trkpt>
      <trkpt lat="47.968808" lon="9.669249">
        <ele>557.391105</ele>
        <time>2026-07-29T08:00:17.566Z</time>
      </trkpt>
      <trkpt lat="47.968850" lon="9.669284">
        <ele>557.480550</ele>
        <time>2026-07-29T08:00:19.674Z</time>
      </trkpt>
      <trkpt lat="47.968919" lon="9.669312">
        <ele>557.613525</ele>
        <time>2026-07-29T08:00:22.903Z</time>
      </trkpt>
      <trkpt lat="47.969250" lon="9.669329">
        <ele>558.243231</ele>
        <time>2026-07-29T08:00:37.773Z</time>
      </trkpt>
      <trkpt lat="47.969446" lon="9.669376">
        <ele>558.691408</ele>
        <time>2026-07-29T08:00:45.722Z</time>
      </trkpt>
      <trkpt lat="47.970355" lon="9.669967">
        <ele>560.929668</ele>
        <time>2026-07-29T08:01:13.124Z</time>
      </trkpt>
      <trkpt lat="47.970705" lon="9.670256">
        <ele>561.832575</ele>
        <time>2026-07-29T08:01:23.692Z</time>
      </trkpt>
      <trkpt lat="47.970835" lon="9.670400">
        <ele>562.197980</ele>
        <time>2026-07-29T08:01:28.532Z</time>
      </trkpt>
      <trkpt lat="47.970893" lon="9.670534">
        <ele>562.439038</ele>
        <time>2026-07-29T08:01:31.940Z</time>
      </trkpt>
      <trkpt lat="47.970898" lon="9.670657">
        <ele>562.625185</ele>
        <time>2026-07-29T08:01:34.683Z</time>
      </trkpt>
      <trkpt lat="47.970865" lon="9.670896">
        <ele>562.993819</ele>
        <time>2026-07-29T08:01:40.400Z</time>
      </trkpt>
      <trkpt lat="47.970427" lon="9.672202">
        <ele>565.200369</ele>
        <time>2026-07-29T08:02:14.365Z</time>
      </trkpt>
      <trkpt lat="47.970299" lon="9.672771">
        <ele>566.107138</ele>
        <time>2026-07-29T08:02:25.672Z</time>
      </trkpt>
      <trkpt lat="47.970245" lon="9.673232">
        <ele>566.512834</ele>
        <time>2026-07-29T08:02:33.352Z</time>
      </trkpt>
      <trkpt lat="47.970190" lon="9.674342">
        <ele>567.238216</ele>
        <time>2026-07-29T08:02:51.249Z</time>
      </trkpt>
      <trkpt lat="47.970224" lon="9.675055">
        <ele>567.704066</ele>
        <time>2026-07-29T08:03:03.736Z</time>
      </trkpt>
      <trkpt lat="47.970917" lon="9.675143">
        <ele>568.166409</ele>
        <time>2026-07-29T08:03:23.727Z</time>
      </trkpt>
      <trkpt lat="47.971069" lon="9.675197">
        <ele>568.224144</ele>
        <time>2026-07-29T08:03:27.910Z</time>
      </trkpt>
      <trkpt lat="47.971325" lon="9.675355">
        <ele>568.326502</ele>
        <time>2026-07-29T08:03:34.873Z</time>
      </trkpt>
      <trkpt lat="47.971395" lon="9.675399">
        <ele>568.354566</ele>
        <time>2026-07-29T08:03:36.668Z</time>
      </trkpt>
      <trkpt lat="47.971916" lon="9.675840">
        <ele>568.575856</ele>
        <time>2026-07-29T08:03:49.949Z</time>
      </trkpt>
      <trkpt lat="47.972091" lon="9.675951">
        <ele>568.646113</ele>
        <time>2026-07-29T08:03:53.840Z</time>
      </trkpt>
      <trkpt lat="47.972328" lon="9.676164">
        <ele>568.396904</ele>
        <time>2026-07-29T08:03:59.415Z</time>
      </trkpt>
      <trkpt lat="47.972477" lon="9.676247">
        <ele>568.030932</ele>
        <time>2026-07-29T08:04:02.617Z</time>
      </trkpt>
      <trkpt lat="47.972809" lon="9.676371">
        <ele>567.243358</ele>
        <time>2026-07-29T08:04:09.389Z</time>
      </trkpt>
      <trkpt lat="47.972988" lon="9.676374">
        <ele>566.831389</ele>
        <time>2026-07-29T08:04:12.734Z</time>
      </trkpt>
      <trkpt lat="47.973434" lon="9.676407">
        <ele>565.803724</ele>
        <time>2026-07-29T08:04:20.282Z</time>
      </trkpt>
      <trkpt lat="47.974539" lon="9.676203">
        <ele>563.118368</ele>
        <time>2026-07-29T08:04:37.450Z</time>
      </trkpt>
      <trkpt lat="47.974677" lon="9.676203">
        <ele>562.771163</ele>
        <time>2026-07-29T08:04:39.606Z</time>
      </trkpt>
      <trkpt lat="47.974676" lon="9.676312">
        <ele>562.587553</ele>
        <time>2026-07-29T08:04:40.766Z</time>
      </trkpt>
      <trkpt lat="47.974931" lon="9.676301">
        <ele>561.945711</ele>
        <time>2026-07-29T08:04:44.929Z</time>
      </trkpt>
      <trkpt lat="47.975376" lon="9.676312">
        <ele>560.825949</ele>
        <time>2026-07-29T08:04:53.065Z</time>
      </trkpt>
      <trkpt lat="47.975475" lon="9.676332">
        <ele>560.574599</ele>
        <time>2026-07-29T08:04:55.183Z</time>
      </trkpt>
      <trkpt lat="47.975851" lon="9.676408">
        <ele>560.143524</ele>
        <time>2026-07-29T08:05:04.267Z</time>
      </trkpt>
      <trkpt lat="47.976184" lon="9.676576">
        <ele>560.374658</ele>
        <time>2026-07-29T08:05:13.248Z</time>
      </trkpt>
      <trkpt lat="47.976227" lon="9.676612">
        <ele>560.407073</ele>
        <time>2026-07-29T08:05:14.490Z</time>
      </trkpt>
      <trkpt lat="47.976203" lon="9.676700">
        <ele>560.448904</ele>
        <time>2026-07-29T08:05:16.099Z</time>
      </trkpt>
      <trkpt lat="47.975937" lon="9.676978">
        <ele>560.662388</ele>
        <time>2026-07-29T08:05:24.062Z</time>
      </trkpt>
      <trkpt lat="47.975725" lon="9.677279">
        <ele>560.854727</ele>
        <time>2026-07-29T08:05:30.894Z</time>
      </trkpt>
      <trkpt lat="47.975393" lon="9.677919">
        <ele>561.211164</ele>
        <time>2026-07-29T08:05:44.573Z</time>
      </trkpt>
      <trkpt lat="47.975270" lon="9.678239">
        <ele>561.720280</ele>
        <time>2026-07-29T08:05:51.646Z</time>
      </trkpt>
      <trkpt lat="47.975187" lon="9.678508">
        <ele>562.140864</ele>
        <time>2026-07-29T08:05:57.815Z</time>
      </trkpt>
      <trkpt lat="47.975089" lon="9.679189">
        <ele>563.129938</ele>
        <time>2026-07-29T08:06:13.436Z</time>
      </trkpt>
      <trkpt lat="47.974832" lon="9.680015">
        <ele>564.423305</ele>
        <time>2026-07-29T08:06:34.183Z</time>
      </trkpt>
      <trkpt lat="47.974803" lon="9.680256">
        <ele>564.770999</ele>
        <time>2026-07-29T08:06:39.304Z</time>
      </trkpt>
      <trkpt lat="47.974854" lon="9.680671">
        <ele>565.242106</ele>
        <time>2026-07-29T08:06:47.387Z</time>
      </trkpt>
      <trkpt lat="47.975309" lon="9.681606">
        <ele>566.260431</ele>
        <time>2026-07-29T08:07:06.459Z</time>
      </trkpt>
      <trkpt lat="47.975400" lon="9.681835">
        <ele>566.495035</ele>
        <time>2026-07-29T08:07:10.881Z</time>
      </trkpt>
      <trkpt lat="47.975470" lon="9.682169">
        <ele>566.803357</ele>
        <time>2026-07-29T08:07:16.978Z</time>
      </trkpt>
      <trkpt lat="47.975490" lon="9.682415">
        <ele>567.021664</ele>
        <time>2026-07-29T08:07:21.549Z</time>
      </trkpt>
      <trkpt lat="47.975482" lon="9.683712">
        <ele>568.454062</ele>
        <time>2026-07-29T08:07:48.072Z</time>
      </trkpt>
      <trkpt lat="47.975553" lon="9.684724">
        <ele>569.690197</ele>
        <time>2026-07-29T08:08:10.913Z</time>
      </trkpt>
      <trkpt lat="47.975521" lon="9.685213">
        <ele>570.287077</ele>
        <time>2026-07-29T08:08:20.522Z</time>
      </trkpt>
      <trkpt lat="47.975522" lon="9.685249">
        <ele>570.330848</ele>
        <time>2026-07-29T08:08:21.155Z</time>
      </trkpt>
      <trkpt lat="47.975347" lon="9.686899">
        <ele>569.990829</ele>
        <time>2026-07-29T08:08:45.175Z</time>
      </trkpt>
      <trkpt lat="47.975316" lon="9.688817">
        <ele>569.226206</ele>
        <time>2026-07-29T08:09:08.557Z</time>
      </trkpt>
      <trkpt lat="47.975263" lon="9.689513">
        <ele>569.066774</ele>
        <time>2026-07-29T08:09:16.854Z</time>
      </trkpt>
      <trkpt lat="47.975193" lon="9.689920">
        <ele>568.971131</ele>
        <time>2026-07-29T08:09:22.710Z</time>
      </trkpt>
      <trkpt lat="47.975106" lon="9.690199">
        <ele>568.901079</ele>
        <time>2026-07-29T08:09:27.964Z</time>
      </trkpt>
      <trkpt lat="47.975042" lon="9.690316">
        <ele>568.866691</ele>
        <time>2026-07-29T08:09:30.767Z</time>
      </trkpt>
      <trkpt lat="47.974446" lon="9.690976">
        <ele>570.147108</ele>
        <time>2026-07-29T08:09:52.629Z</time>
      </trkpt>
      <trkpt lat="47.974339" lon="9.691112">
        <ele>570.610320</ele>
        <time>2026-07-29T08:09:57.052Z</time>
      </trkpt>
      <trkpt lat="47.974182" lon="9.691394">
        <ele>571.419874</ele>
        <time>2026-07-29T08:10:05.321Z</time>
      </trkpt>
      <trkpt lat="47.974030" lon="9.691790">
        <ele>572.427419</ele>
        <time>2026-07-29T08:10:16.975Z</time>
      </trkpt>
      <trkpt lat="47.973955" lon="9.692058">
        <ele>573.068566</ele>
        <time>2026-07-29T08:10:25.065Z</time>
      </trkpt>
      <trkpt lat="47.973816" lon="9.692927">
        <ele>574.823007</ele>
        <time>2026-07-29T08:10:50.497Z</time>
      </trkpt>
      <trkpt lat="47.973701" lon="9.693234">
        <ele>575.120414</ele>
        <time>2026-07-29T08:10:59.326Z</time>
      </trkpt>
      <trkpt lat="47.973407" lon="9.693810">
        <ele>575.732759</ele>
        <time>2026-07-29T08:11:14.113Z</time>
      </trkpt>
      <trkpt lat="47.973276" lon="9.694033">
        <ele>575.983576</ele>
        <time>2026-07-29T08:11:18.902Z</time>
      </trkpt>
      <trkpt lat="47.972819" lon="9.694658">
        <ele>576.766034</ele>
        <time>2026-07-29T08:11:31.496Z</time>
      </trkpt>
      <trkpt lat="47.972123" lon="9.695490">
        <ele>576.389232</ele>
        <time>2026-07-29T08:11:48.605Z</time>
      </trkpt>
      <trkpt lat="47.971843" lon="9.695824">
        <ele>576.112647</ele>
        <time>2026-07-29T08:11:55.256Z</time>
      </trkpt>
      <trkpt lat="47.971658" lon="9.696044">
        <ele>575.930122</ele>
        <time>2026-07-29T08:11:59.355Z</time>
      </trkpt>
      <trkpt lat="47.971465" lon="9.696273">
        <ele>575.739868</ele>
        <time>2026-07-29T08:12:03.953Z</time>
      </trkpt>
      <trkpt lat="47.971412" lon="9.696400">
        <ele>575.662533</ele>
        <time>2026-07-29T08:12:06.164Z</time>
      </trkpt>
      <trkpt lat="47.971401" lon="9.696488">
        <ele>575.616272</ele>
        <time>2026-07-29T08:12:07.562Z</time>
      </trkpt>
      <trkpt lat="47.971736" lon="9.696445">
        <ele>576.005476</ele>
        <time>2026-07-29T08:12:17.103Z</time>
      </trkpt>
      <trkpt lat="47.972404" lon="9.696275">
        <ele>577.066757</ele>
        <time>2026-07-29T08:12:39.076Z</time>
      </trkpt>
      <trkpt lat="47.973557" lon="9.696129">
        <ele>579.157628</ele>
        <time>2026-07-29T08:13:11.997Z</time>
      </trkpt>
      <trkpt lat="47.974104" lon="9.695963">
        <ele>580.527717</ele>
        <time>2026-07-29T08:13:31.844Z</time>
      </trkpt>
      <trkpt lat="47.974625" lon="9.695712">
        <ele>581.871425</ele>
        <time>2026-07-29T08:13:51.729Z</time>
      </trkpt>
      <trkpt lat="47.975428" lon="9.695112">
        <ele>582.383522</ele>
        <time>2026-07-29T08:14:16.807Z</time>
      </trkpt>
      <trkpt lat="47.975752" lon="9.694955">
        <ele>582.108017</ele>
        <time>2026-07-29T08:14:23.421Z</time>
      </trkpt>
      <trkpt lat="47.976010" lon="9.694942">
        <ele>581.899219</ele>
        <time>2026-07-29T08:14:27.936Z</time>
      </trkpt>
      <trkpt lat="47.976563" lon="9.695158">
        <ele>581.436896</ele>
        <time>2026-07-29T08:14:37.751Z</time>
      </trkpt>
      <trkpt lat="47.976776" lon="9.695162">
        <ele>581.121837</ele>
        <time>2026-07-29T08:14:41.451Z</time>
      </trkpt>
      <trkpt lat="47.977549" lon="9.694845">
        <ele>579.363912</ele>
        <time>2026-07-29T08:14:55.236Z</time>
      </trkpt>
      <trkpt lat="47.977869" lon="9.694757">
        <ele>578.650353</ele>
        <time>2026-07-29T08:15:00.797Z</time>
      </trkpt>
      <trkpt lat="47.977914" lon="9.694772">
        <ele>578.549240</ele>
        <time>2026-07-29T08:15:01.596Z</time>
      </trkpt>
      <trkpt lat="47.977998" lon="9.694858">
        <ele>578.325915</ele>
        <time>2026-07-29T08:15:03.393Z</time>
      </trkpt>
      <trkpt lat="47.978325" lon="9.695405">
        <ele>577.198869</ele>
        <time>2026-07-29T08:15:12.318Z</time>
      </trkpt>
      <trkpt lat="47.978843" lon="9.696373">
        <ele>574.784768</ele>
        <time>2026-07-29T08:15:26.440Z</time>
      </trkpt>
      <trkpt lat="47.979335" lon="9.697411">
        <ele>572.307214</ele>
        <time>2026-07-29T08:15:40.254Z</time>
      </trkpt>
      <trkpt lat="47.979878" lon="9.698709">
        <ele>569.843330</ele>
        <time>2026-07-29T08:15:56.098Z</time>
      </trkpt>
      <trkpt lat="47.980051" lon="9.699180">
        <ele>568.987318</ele>
        <time>2026-07-29T08:16:02.556Z</time>
      </trkpt>
      <trkpt lat="47.980074" lon="9.699496">
        <ele>568.480858</ele>
        <time>2026-07-29T08:16:07.505Z</time>
      </trkpt>
      <trkpt lat="47.980032" lon="9.700363">
        <ele>567.234783</ele>
        <time>2026-07-29T08:16:23.038Z</time>
      </trkpt>
      <trkpt lat="47.980107" lon="9.701451">
        <ele>565.797671</ele>
        <time>2026-07-29T08:16:37.615Z</time>
      </trkpt>
      <trkpt lat="47.980157" lon="9.701690">
        <ele>565.468664</ele>
        <time>2026-07-29T08:16:40.501Z</time>
      </trkpt>
      <trkpt lat="47.980433" lon="9.702260">
        <ele>564.544326</ele>
        <time>2026-07-29T08:16:47.748Z</time>
      </trkpt>
      <trkpt lat="47.980561" lon="9.702696">
        <ele>563.852778</ele>
        <time>2026-07-29T08:16:52.411Z</time>
      </trkpt>
      <trkpt lat="47.980762" lon="9.703628">
        <ele>562.372752</ele>
        <time>2026-07-29T08:17:02.310Z</time>
      </trkpt>
      <trkpt lat="47.981096" lon="9.704916">
        <ele>560.312900</ele>
        <time>2026-07-29T08:17:20.589Z</time>
      </trkpt>
      <trkpt lat="47.981134" lon="9.705303">
        <ele>561.180501</ele>
        <time>2026-07-29T08:17:29.682Z</time>
      </trkpt>
      <trkpt lat="47.981127" lon="9.705600">
        <ele>561.839692</ele>
        <time>2026-07-29T08:17:37.735Z</time>
      </trkpt>
      <trkpt lat="47.981085" lon="9.706080">
        <ele>562.913451</ele>
        <time>2026-07-29T08:17:52.701Z</time>
      </trkpt>
      <trkpt lat="47.981136" lon="9.706604">
        <ele>564.087970</ele>
        <time>2026-07-29T08:18:07.695Z</time>
      </trkpt>
      <trkpt lat="47.981614" lon="9.708348">
        <ele>567.419023</ele>
        <time>2026-07-29T08:18:48.983Z</time>
      </trkpt>
      <trkpt lat="47.981839" lon="9.709278">
        <ele>568.686643</ele>
        <time>2026-07-29T08:19:08.201Z</time>
      </trkpt>
      <trkpt lat="47.981987" lon="9.709725">
        <ele>569.325904</ele>
        <time>2026-07-29T08:19:17.535Z</time>
      </trkpt>
      <trkpt lat="47.982254" lon="9.710347">
        <ele>570.118884</ele>
        <time>2026-07-29T08:19:30.826Z</time>
      </trkpt>
      <trkpt lat="47.982592" lon="9.710852">
        <ele>570.787574</ele>
        <time>2026-07-29T08:19:43.501Z</time>
      </trkpt>
      <trkpt lat="47.982974" lon="9.711334">
        <ele>571.487025</ele>
        <time>2026-07-29T08:19:57.364Z</time>
      </trkpt>
      <trkpt lat="47.983123" lon="9.711724">
        <ele>571.907491</ele>
        <time>2026-07-29T08:20:06.275Z</time>
      </trkpt>
      <trkpt lat="47.983226" lon="9.712449">
        <ele>572.499446</ele>
        <time>2026-07-29T08:20:21.058Z</time>
      </trkpt>
      <trkpt lat="47.983336" lon="9.714468">
        <ele>573.892837</ele>
        <time>2026-07-29T08:20:56.707Z</time>
      </trkpt>
      <trkpt lat="47.983119" lon="9.714255">
        <ele>573.878635</ele>
        <time>2026-07-29T08:21:03.825Z</time>
      </trkpt>
      <trkpt lat="47.982656" lon="9.713949">
        <ele>572.847061</ele>
        <time>2026-07-29T08:21:14.350Z</time>
      </trkpt>
      <trkpt lat="47.982335" lon="9.713814">
        <ele>572.167586</ele>
        <time>2026-07-29T08:21:19.821Z</time>
      </trkpt>
      <trkpt lat="47.981507" lon="9.713556">
        <ele>570.444189</ele>
        <time>2026-07-29T08:21:33.348Z</time>
      </trkpt>
      <trkpt lat="47.981049" lon="9.713450">
        <ele>569.436196</ele>
        <time>2026-07-29T08:21:41.050Z</time>
      </trkpt>
      <trkpt lat="47.980435" lon="9.713404">
        <ele>568.095036</ele>
        <time>2026-07-29T08:21:51.707Z</time>
      </trkpt>
      <trkpt lat="47.978995" lon="9.713492">
        <ele>565.654926</ele>
        <time>2026-07-29T08:22:18.073Z</time>
      </trkpt>
      <trkpt lat="47.977699" lon="9.713779">
        <ele>564.243596</ele>
        <time>2026-07-29T08:22:43.185Z</time>
      </trkpt>
      <trkpt lat="47.977317" lon="9.713832">
        <ele>564.025932</ele>
        <time>2026-07-29T08:22:51.621Z</time>
      </trkpt>
      <trkpt lat="47.976417" lon="9.713877">
        <ele>563.515022</ele>
        <time>2026-07-29T08:23:11.571Z</time>
      </trkpt>
      <trkpt lat="47.975090" lon="9.713548">
        <ele>561.470490</ele>
        <time>2026-07-29T08:23:36.424Z</time>
      </trkpt>
      <trkpt lat="47.974948" lon="9.713532">
        <ele>561.214514</ele>
        <time>2026-07-29T08:23:38.876Z</time>
      </trkpt>
      <trkpt lat="47.974422" lon="9.713620">
        <ele>560.263094</ele>
        <time>2026-07-29T08:23:47.658Z</time>
      </trkpt>
      <trkpt lat="47.974105" lon="9.713585">
        <ele>559.949346</ele>
        <time>2026-07-29T08:23:52.962Z</time>
      </trkpt>
      <trkpt lat="47.973976" lon="9.713571">
        <ele>559.860168</ele>
        <time>2026-07-29T08:23:55.225Z</time>
      </trkpt>
      <trkpt lat="47.973803" lon="9.713605">
        <ele>559.739859</ele>
        <time>2026-07-29T08:23:58.392Z</time>
      </trkpt>
      <trkpt lat="47.972873" lon="9.714540">
        <ele>558.966917</ele>
        <time>2026-07-29T08:24:22.929Z</time>
      </trkpt>
      <trkpt lat="47.972790" lon="9.714620">
        <ele>558.898809</ele>
        <time>2026-07-29T08:24:25.277Z</time>
      </trkpt>
      <trkpt lat="47.967298" lon="9.717891">
        <ele>563.570370</ele>
        <time>2026-07-29T08:26:55.847Z</time>
      </trkpt>
      <trkpt lat="47.967284" lon="9.718424">
        <ele>563.922245</ele>
        <time>2026-07-29T08:27:04.811Z</time>
      </trkpt>
      <trkpt lat="47.967247" lon="9.718790">
        <ele>564.166421</ele>
        <time>2026-07-29T08:27:11.303Z</time>
      </trkpt>
      <trkpt lat="47.967180" lon="9.719104">
        <ele>564.383821</ele>
        <time>2026-07-29T08:27:17.512Z</time>
      </trkpt>
      <trkpt lat="47.966997" lon="9.719498">
        <ele>564.700146</ele>
        <time>2026-07-29T08:27:26.770Z</time>
      </trkpt>
      <trkpt lat="47.966423" lon="9.720291">
        <ele>565.105741</ele>
        <time>2026-07-29T08:27:47.514Z</time>
      </trkpt>
      <trkpt lat="47.966125" lon="9.720507">
        <ele>565.232075</ele>
        <time>2026-07-29T08:27:54.236Z</time>
      </trkpt>
      <trkpt lat="47.965891" lon="9.720605">
        <ele>565.324765</ele>
        <time>2026-07-29T08:27:58.839Z</time>
      </trkpt>
      <trkpt lat="47.965673" lon="9.720612">
        <ele>565.407929</ele>
        <time>2026-07-29T08:28:03.323Z</time>
      </trkpt>
      <trkpt lat="47.965547" lon="9.720580">
        <ele>565.456675</ele>
        <time>2026-07-29T08:28:06.234Z</time>
      </trkpt>
      <trkpt lat="47.964524" lon="9.720052">
        <ele>566.431804</ele>
        <time>2026-07-29T08:28:35.123Z</time>
      </trkpt>
      <trkpt lat="47.964443" lon="9.720049">
        <ele>566.519098</ele>
        <time>2026-07-29T08:28:37.120Z</time>
      </trkpt>
      <trkpt lat="47.964248" lon="9.720119">
        <ele>566.735170</ele>
        <time>2026-07-29T08:28:42.134Z</time>
      </trkpt>
      <trkpt lat="47.964044" lon="9.719874">
        <ele>567.017205</ele>
        <time>2026-07-29T08:28:49.357Z</time>
      </trkpt>
      <trkpt lat="47.963915" lon="9.719753">
        <ele>567.181325</ele>
        <time>2026-07-29T08:28:53.866Z</time>
      </trkpt>
      <trkpt lat="47.963813" lon="9.719578">
        <ele>567.348700</ele>
        <time>2026-07-29T08:28:58.519Z</time>
      </trkpt>
      <trkpt lat="47.963752" lon="9.719621">
        <ele>567.421373</ele>
        <time>2026-07-29T08:29:00.538Z</time>
      </trkpt>
      <trkpt lat="47.963480" lon="9.719670">
        <ele>567.589770</ele>
        <time>2026-07-29T08:29:08.412Z</time>
      </trkpt>
      <trkpt lat="47.963010" lon="9.719773">
        <ele>567.803114</ele>
        <time>2026-07-29T08:29:20.126Z</time>
      </trkpt>
      <trkpt lat="47.962893" lon="9.719751">
        <ele>567.856075</ele>
        <time>2026-07-29T08:29:22.870Z</time>
      </trkpt>
      <trkpt lat="47.962795" lon="9.719705">
        <ele>567.902211</ele>
        <time>2026-07-29T08:29:25.224Z</time>
      </trkpt>
      <trkpt lat="47.962523" lon="9.719392">
        <ele>568.056429</ele>
        <time>2026-07-29T08:29:32.747Z</time>
      </trkpt>
      <trkpt lat="47.962325" lon="9.719122">
        <ele>568.176847</ele>
        <time>2026-07-29T08:29:38.430Z</time>
      </trkpt>
      <trkpt lat="47.962306" lon="9.719407">
        <ele>568.262980</ele>
        <time>2026-07-29T08:29:42.586Z</time>
      </trkpt>
      <trkpt lat="47.962317" lon="9.719556">
        <ele>568.307972</ele>
        <time>2026-07-29T08:29:44.796Z</time>
      </trkpt>
      <trkpt lat="47.962612" lon="9.722425">
        <ele>569.251289</ele>
        <time>2026-07-29T08:30:30.979Z</time>
      </trkpt>
      <trkpt lat="47.962846" lon="9.722982">
        <ele>569.850878</ele>
        <time>2026-07-29T08:30:43.437Z</time>
      </trkpt>
      <trkpt lat="47.962940" lon="9.723040">
        <ele>569.989379</ele>
        <time>2026-07-29T08:30:46.436Z</time>
      </trkpt>
      <trkpt lat="47.963253" lon="9.723531">
        <ele>570.607543</ele>
        <time>2026-07-29T08:31:00.244Z</time>
      </trkpt>
      <trkpt lat="47.963228" lon="9.723587">
        <ele>570.668915</ele>
        <time>2026-07-29T08:31:01.622Z</time>
      </trkpt>
      <trkpt lat="47.963196" lon="9.723863">
        <ele>570.924330</ele>
        <time>2026-07-29T08:31:07.265Z</time>
      </trkpt>
      <trkpt lat="47.963250" lon="9.723964">
        <ele>571.042183</ele>
        <time>2026-07-29T08:31:10.364Z</time>
      </trkpt>
      <trkpt lat="47.963286" lon="9.724234">
        <ele>571.293215</ele>
        <time>2026-07-29T08:31:16.800Z</time>
      </trkpt>
      <trkpt lat="47.963276" lon="9.724387">
        <ele>571.433391</ele>
        <time>2026-07-29T08:31:20.259Z</time>
      </trkpt>
      <trkpt lat="47.963330" lon="9.724692">
        <ele>571.697028</ele>
        <time>2026-07-29T08:31:27.014Z</time>
      </trkpt>
      <trkpt lat="47.963330" lon="9.724692">
        <ele>571.697028</ele>
        <time>2026-07-29T08:31:27.018Z</time>
      </trkpt>
      <trkpt lat="47.963330" lon="9.724692">
        <ele>571.697028</ele>
        <time>2026-07-29T08:31:27.018Z</time>
      </trkpt>
      <trkpt lat="47.963309" lon="9.724668">
        <ele>571.729127</ele>
        <time>2026-07-29T08:31:27.702Z</time>
      </trkpt>
      <trkpt lat="47.963356" lon="9.724942">
        <ele>571.959032</ele>
        <time>2026-07-29T08:31:32.600Z</time>
      </trkpt>
      <trkpt lat="47.963362" lon="9.725123">
        <ele>572.106332</ele>
        <time>2026-07-29T08:31:35.738Z</time>
      </trkpt>
      <trkpt lat="47.963350" lon="9.725284">
        <ele>572.238005</ele>
        <time>2026-07-29T08:31:38.543Z</time>
      </trkpt>
      <trkpt lat="47.963333" lon="9.725672">
        <ele>572.554054</ele>
        <time>2026-07-29T08:31:45.276Z</time>
      </trkpt>
      <trkpt lat="47.963312" lon="9.726027">
        <ele>572.843729</ele>
        <time>2026-07-29T08:31:51.447Z</time>
      </trkpt>
      <trkpt lat="47.963285" lon="9.726367">
        <ele>573.122025</ele>
        <time>2026-07-29T08:31:57.377Z</time>
      </trkpt>
      <trkpt lat="47.963232" lon="9.726693">
        <ele>573.394703</ele>
        <time>2026-07-29T08:32:03.187Z</time>
      </trkpt>
      <trkpt lat="47.963336" lon="9.726895">
        <ele>573.601816</ele>
        <time>2026-07-29T08:32:07.607Z</time>
      </trkpt>
      <trkpt lat="47.963311" lon="9.726924">
        <ele>573.640242</ele>
        <time>2026-07-29T08:32:08.388Z</time>
      </trkpt>
      <trkpt lat="47.963038" lon="9.727536">
        <ele>574.209359</ele>
        <time>2026-07-29T08:32:19.394Z</time>
      </trkpt>
      <trkpt lat="47.962927" lon="9.727700">
        <ele>574.389126</ele>
        <time>2026-07-29T08:32:23.127Z</time>
      </trkpt>
      <trkpt lat="47.962651" lon="9.727941">
        <ele>574.757214</ele>
        <time>2026-07-29T08:32:31.581Z</time>
      </trkpt>
      <trkpt lat="47.962479" lon="9.728013">
        <ele>574.962869</ele>
        <time>2026-07-29T08:32:36.684Z</time>
      </trkpt>
      <trkpt lat="47.962238" lon="9.728057">
        <ele>575.242398</ele>
        <time>2026-07-29T08:32:43.287Z</time>
      </trkpt>
      <trkpt lat="47.961996" lon="9.728211">
        <ele>575.545252</ele>
        <time>2026-07-29T08:32:50.330Z</time>
      </trkpt>
      <trkpt lat="47.961899" lon="9.728421">
        <ele>575.741930</ele>
        <time>2026-07-29T08:32:55.394Z</time>
      </trkpt>
      <trkpt lat="47.961710" lon="9.729476">
        <ele>575.962239</ele>
        <time>2026-07-29T08:33:17.640Z</time>
      </trkpt>
      <trkpt lat="47.961572" lon="9.729894">
        <ele>576.052439</ele>
        <time>2026-07-29T08:33:25.844Z</time>
      </trkpt>
      <trkpt lat="47.961320" lon="9.730391">
        <ele>576.173096</ele>
        <time>2026-07-29T08:33:34.163Z</time>
      </trkpt>
      <trkpt lat="47.960897" lon="9.731125">
        <ele>576.024387</ele>
        <time>2026-07-29T08:33:45.369Z</time>
      </trkpt>
      <trkpt lat="47.960556" lon="9.731939">
        <ele>575.490493</ele>
        <time>2026-07-29T08:33:57.483Z</time>
      </trkpt>
      <trkpt lat="47.960613" lon="9.731981">
        <ele>575.437714</ele>
        <time>2026-07-29T08:33:58.776Z</time>
      </trkpt>
      <trkpt lat="47.960553" lon="9.732204">
        <ele>575.304080</ele>
        <time>2026-07-29T08:34:02.148Z</time>
      </trkpt>
      <trkpt lat="47.960199" lon="9.733035">
        <ele>574.787938</ele>
        <time>2026-07-29T08:34:16.709Z</time>
      </trkpt>
      <trkpt lat="47.960070" lon="9.733309">
        <ele>574.848571</ele>
        <time>2026-07-29T08:34:21.823Z</time>
      </trkpt>
      <trkpt lat="47.959942" lon="9.733511">
        <ele>574.898914</ele>
        <time>2026-07-29T08:34:26.045Z</time>
      </trkpt>
      <trkpt lat="47.959500" lon="9.734118">
        <ele>575.061243</ele>
        <time>2026-07-29T08:34:39.290Z</time>
      </trkpt>
      <trkpt lat="47.959172" lon="9.734447">
        <ele>575.168056</ele>
        <time>2026-07-29T08:34:48.208Z</time>
      </trkpt>
      <trkpt lat="47.958853" lon="9.734662">
        <ele>575.262667</ele>
        <time>2026-07-29T08:34:56.646Z</time>
      </trkpt>
      <trkpt lat="47.958616" lon="9.734777">
        <ele>575.886933</ele>
        <time>2026-07-29T08:35:03.061Z</time>
      </trkpt>
      <trkpt lat="47.958273" lon="9.734886">
        <ele>576.811685</ele>
        <time>2026-07-29T08:35:13.467Z</time>
      </trkpt>
      <trkpt lat="47.956127" lon="9.735260">
        <ele>582.211567</ele>
        <time>2026-07-29T08:36:31.234Z</time>
      </trkpt>
      <trkpt lat="47.955869" lon="9.735318">
        <ele>582.817681</ele>
        <time>2026-07-29T08:36:38.896Z</time>
      </trkpt>
      <trkpt lat="47.955423" lon="9.735423">
        <ele>583.866580</ele>
        <time>2026-07-29T08:36:50.070Z</time>
      </trkpt>
      <trkpt lat="47.955167" lon="9.735524">
        <ele>584.594265</ele>
        <time>2026-07-29T08:36:56.323Z</time>
      </trkpt>
      <trkpt lat="47.954881" lon="9.735793">
        <ele>585.680337</ele>
        <time>2026-07-29T08:37:05.530Z</time>
      </trkpt>
      <trkpt lat="47.954735" lon="9.735998">
        <ele>586.324288</ele>
        <time>2026-07-29T08:37:11.580Z</time>
      </trkpt>
      <trkpt lat="47.954508" lon="9.736500">
        <ele>587.627721</ele>
        <time>2026-07-29T08:37:27.044Z</time>
      </trkpt>
      <trkpt lat="47.954404" lon="9.736956">
        <ele>588.664327</ele>
        <time>2026-07-29T08:37:40.913Z</time>
      </trkpt>
      <trkpt lat="47.954305" lon="9.738426">
        <ele>591.034020</ele>
        <time>2026-07-29T08:38:20.988Z</time>
      </trkpt>
      <trkpt lat="47.954216" lon="9.738931">
        <ele>591.672916</ele>
        <time>2026-07-29T08:38:33.013Z</time>
      </trkpt>
      <trkpt lat="47.954083" lon="9.739328">
        <ele>592.216021</ele>
        <time>2026-07-29T08:38:41.487Z</time>
      </trkpt>
      <trkpt lat="47.953960" lon="9.739529">
        <ele>592.549142</ele>
        <time>2026-07-29T08:38:45.441Z</time>
      </trkpt>
      <trkpt lat="47.953817" lon="9.739714">
        <ele>592.894799</ele>
        <time>2026-07-29T08:38:49.035Z</time>
      </trkpt>
      <trkpt lat="47.952948" lon="9.740547">
        <ele>592.511367</ele>
        <time>2026-07-29T08:39:06.771Z</time>
      </trkpt>
      <trkpt lat="47.952570" lon="9.741145">
        <ele>592.023132</ele>
        <time>2026-07-29T08:39:18.792Z</time>
      </trkpt>
      <trkpt lat="47.952228" lon="9.741692">
        <ele>591.771547</ele>
        <time>2026-07-29T08:39:31.466Z</time>
      </trkpt>
      <trkpt lat="47.952012" lon="9.741969">
        <ele>592.130036</ele>
        <time>2026-07-29T08:39:37.513Z</time>
      </trkpt>
      <trkpt lat="47.951629" lon="9.742188">
        <ele>592.646394</ele>
        <time>2026-07-29T08:39:45.608Z</time>
      </trkpt>
      <trkpt lat="47.951312" lon="9.742303">
        <ele>593.057117</ele>
        <time>2026-07-29T08:39:53.468Z</time>
      </trkpt>
      <trkpt lat="47.950972" lon="9.742417">
        <ele>593.495846</ele>
        <time>2026-07-29T08:40:04.440Z</time>
      </trkpt>
      <trkpt lat="47.950741" lon="9.742537">
        <ele>593.803782</ele>
        <time>2026-07-29T08:40:13.367Z</time>
      </trkpt>
      <trkpt lat="47.950482" lon="9.742742">
        <ele>594.588105</ele>
        <time>2026-07-29T08:40:24.876Z</time>
      </trkpt>
      <trkpt lat="47.950200" lon="9.743033">
        <ele>595.736953</ele>
        <time>2026-07-29T08:40:38.327Z</time>
      </trkpt>
      <trkpt lat="47.950467" lon="9.745494">
        <ele>600.546929</ele>
        <time>2026-07-29T08:41:37.145Z</time>
      </trkpt>
      <trkpt lat="47.950629" lon="9.745675">
        <ele>600.839349</ele>
        <time>2026-07-29T08:41:42.908Z</time>
      </trkpt>
      <trkpt lat="47.950764" lon="9.745715">
        <ele>601.038256</ele>
        <time>2026-07-29T08:41:46.495Z</time>
      </trkpt>
      <trkpt lat="47.951180" lon="9.745749">
        <ele>601.640363</ele>
        <time>2026-07-29T08:41:55.893Z</time>
      </trkpt>
      <trkpt lat="47.951331" lon="9.745818">
        <ele>601.868581</ele>
        <time>2026-07-29T08:41:59.355Z</time>
      </trkpt>
      <trkpt lat="47.951454" lon="9.745918">
        <ele>602.070986</ele>
        <time>2026-07-29T08:42:02.589Z</time>
      </trkpt>
      <trkpt lat="47.951579" lon="9.746242">
        <ele>602.432909</ele>
        <time>2026-07-29T08:42:08.898Z</time>
      </trkpt>
      <trkpt lat="47.952017" lon="9.748652">
        <ele>603.958352</ele>
        <time>2026-07-29T08:42:59.160Z</time>
      </trkpt>
      <trkpt lat="47.952102" lon="9.749072">
        <ele>603.837031</ele>
        <time>2026-07-29T08:43:04.868Z</time>
      </trkpt>
      <trkpt lat="47.952197" lon="9.749606">
        <ele>602.532319</ele>
        <time>2026-07-29T08:43:10.677Z</time>
      </trkpt>
      <trkpt lat="47.952264" lon="9.750514">
        <ele>600.375202</ele>
        <time>2026-07-29T08:43:19.712Z</time>
      </trkpt>
      <trkpt lat="47.952243" lon="9.752665">
        <ele>596.472721</ele>
        <time>2026-07-29T08:43:43.139Z</time>
      </trkpt>
      <trkpt lat="47.952267" lon="9.753038">
        <ele>596.003780</ele>
        <time>2026-07-29T08:43:47.574Z</time>
      </trkpt>
      <trkpt lat="47.952453" lon="9.754546">
        <ele>594.772280</ele>
        <time>2026-07-29T08:44:07.628Z</time>
      </trkpt>
      <trkpt lat="47.952507" lon="9.754825">
        <ele>595.113483</ele>
        <time>2026-07-29T08:44:12.064Z</time>
      </trkpt>
      <trkpt lat="47.952808" lon="9.755783">
        <ele>596.356709</ele>
        <time>2026-07-29T08:44:31.032Z</time>
      </trkpt>
      <trkpt lat="47.952406" lon="9.756462">
        <ele>597.421453</ele>
        <time>2026-07-29T08:44:51.253Z</time>
      </trkpt>
      <trkpt lat="47.952149" lon="9.756837">
        <ele>599.007142</ele>
        <time>2026-07-29T08:45:06.192Z</time>
      </trkpt>
      <trkpt lat="47.951787" lon="9.757198">
        <ele>601.366382</ele>
        <time>2026-07-29T08:45:26.656Z</time>
      </trkpt>
      <trkpt lat="47.951312" lon="9.757824">
        <ele>604.800065</ele>
        <time>2026-07-29T08:45:56.356Z</time>
      </trkpt>
      <trkpt lat="47.950785" lon="9.758290">
        <ele>607.849691</ele>
        <time>2026-07-29T08:46:23.064Z</time>
      </trkpt>
      <trkpt lat="47.950701" lon="9.758397">
        <ele>608.240315</ele>
        <time>2026-07-29T08:46:27.975Z</time>
      </trkpt>
      <trkpt lat="47.950640" lon="9.758576">
        <ele>608.716192</ele>
        <time>2026-07-29T08:46:33.970Z</time>
      </trkpt>
      <trkpt lat="47.950658" lon="9.758714">
        <ele>609.049320</ele>
        <time>2026-07-29T08:46:38.175Z</time>
      </trkpt>
      <trkpt lat="47.950846" lon="9.759565">
        <ele>611.172580</ele>
        <time>2026-07-29T08:47:03.703Z</time>
      </trkpt>
      <trkpt lat="47.950319" lon="9.759703">
        <ele>613.065413</ele>
        <time>2026-07-29T08:47:20.161Z</time>
      </trkpt>
      <trkpt lat="47.950029" lon="9.759744">
        <ele>613.635027</ele>
        <time>2026-07-29T08:47:27.006Z</time>
      </trkpt>
      <trkpt lat="47.949883" lon="9.759764">
        <ele>613.541283</ele>
        <time>2026-07-29T08:47:30.003Z</time>
      </trkpt>
      <trkpt lat="47.949655" lon="9.759947">
        <ele>613.375768</ele>
        <time>2026-07-29T08:47:34.749Z</time>
      </trkpt>
      <trkpt lat="47.949632" lon="9.759966">
        <ele>613.358961</ele>
        <time>2026-07-29T08:47:35.222Z</time>
      </trkpt>
      <trkpt lat="47.949503" lon="9.759897">
        <ele>613.271345</ele>
        <time>2026-07-29T08:47:37.689Z</time>
      </trkpt>
      <trkpt lat="47.949303" lon="9.759638">
        <ele>613.102062</ele>
        <time>2026-07-29T08:47:42.484Z</time>
      </trkpt>
      <trkpt lat="47.949233" lon="9.759484">
        <ele>613.022356</ele>
        <time>2026-07-29T08:47:44.697Z</time>
      </trkpt>
      <trkpt lat="47.949212" lon="9.759475">
        <ele>613.008387</ele>
        <time>2026-07-29T08:47:45.105Z</time>
      </trkpt>
      <trkpt lat="47.949065" lon="9.759414">
        <ele>612.910832</ele>
        <time>2026-07-29T08:47:48.039Z</time>
      </trkpt>
      <trkpt lat="47.948407" lon="9.758591">
        <ele>612.505840</ele>
        <time>2026-07-29T08:48:06.518Z</time>
      </trkpt>
      <trkpt lat="47.948212" lon="9.758387">
        <ele>612.466758</ele>
        <time>2026-07-29T08:48:11.510Z</time>
      </trkpt>
      <trkpt lat="47.948006" lon="9.758177">
        <ele>612.425815</ele>
        <time>2026-07-29T08:48:16.236Z</time>
      </trkpt>
      <trkpt lat="47.947656" lon="9.757867">
        <ele>612.359019</ele>
        <time>2026-07-29T08:48:24.319Z</time>
      </trkpt>
      <trkpt lat="47.948006" lon="9.758177">
        <ele>612.292222</ele>
        <time>2026-07-29T08:48:34.591Z</time>
      </trkpt>
      <trkpt lat="47.948212" lon="9.758387">
        <ele>612.301038</ele>
        <time>2026-07-29T08:48:41.294Z</time>
      </trkpt>
      <trkpt lat="47.948407" lon="9.758591">
        <ele>612.477511</ele>
        <time>2026-07-29T08:48:46.944Z</time>
      </trkpt>
      <trkpt lat="47.949065" lon="9.759414">
        <ele>613.113704</ele>
        <time>2026-07-29T08:49:06.704Z</time>
      </trkpt>
      <trkpt lat="47.949233" lon="9.759484">
        <ele>613.242975</ele>
        <time>2026-07-29T08:49:10.693Z</time>
      </trkpt>
      <trkpt lat="47.949303" lon="9.759638">
        <ele>613.335365</ele>
        <time>2026-07-29T08:49:13.314Z</time>
      </trkpt>
      <trkpt lat="47.949223" lon="9.759725">
        <ele>613.408718</ele>
        <time>2026-07-29T08:49:15.437Z</time>
      </trkpt>
      <trkpt lat="47.949083" lon="9.759865">
        <ele>613.533603</ele>
        <time>2026-07-29T08:49:19.426Z</time>
      </trkpt>
      <trkpt lat="47.949008" lon="9.759968">
        <ele>613.614006</ele>
        <time>2026-07-29T08:49:22.242Z</time>
      </trkpt>
      <trkpt lat="47.949042" lon="9.760048">
        <ele>613.675587</ele>
        <time>2026-07-29T08:49:24.160Z</time>
      </trkpt>
      <trkpt lat="47.949217" lon="9.760199">
        <ele>613.871725</ele>
        <time>2026-07-29T08:49:31.078Z</time>
      </trkpt>
      <trkpt lat="47.949403" lon="9.760435">
        <ele>614.108592</ele>
        <time>2026-07-29T08:49:41.516Z</time>
      </trkpt>
      <trkpt lat="47.949589" lon="9.760624">
        <ele>614.326920</ele>
        <time>2026-07-29T08:49:51.337Z</time>
      </trkpt>
      <trkpt lat="47.949654" lon="9.760667">
        <ele>614.395910</ele>
        <time>2026-07-29T08:49:54.120Z</time>
      </trkpt>
      <trkpt lat="47.949557" lon="9.760813">
        <ele>614.529569</ele>
        <time>2026-07-29T08:49:59.243Z</time>
      </trkpt>
      <trkpt lat="47.948734" lon="9.761701">
        <ele>615.101952</ele>
        <time>2026-07-29T08:50:20.536Z</time>
      </trkpt>
      <trkpt lat="47.948245" lon="9.762109">
        <ele>614.371334</ele>
        <time>2026-07-29T08:50:30.673Z</time>
      </trkpt>
      <trkpt lat="47.948089" lon="9.762321">
        <ele>614.096202</ele>
        <time>2026-07-29T08:50:34.730Z</time>
      </trkpt>
      <trkpt lat="47.948020" lon="9.762633">
        <ele>613.809168</ele>
        <time>2026-07-29T08:50:39.423Z</time>
      </trkpt>
      <trkpt lat="47.947983" lon="9.763123">
        <ele>613.378394</ele>
        <time>2026-07-29T08:50:47.920Z</time>
      </trkpt>
      <trkpt lat="47.947939" lon="9.763392">
        <ele>613.136490</ele>
        <time>2026-07-29T08:50:53.164Z</time>
      </trkpt>
      <trkpt lat="47.947568" lon="9.764333">
        <ele>612.890713</ele>
        <time>2026-07-29T08:51:13.499Z</time>
      </trkpt>
      <trkpt lat="47.946800" lon="9.765871">
        <ele>612.565450</ele>
        <time>2026-07-29T08:51:42.489Z</time>
      </trkpt>
      <trkpt lat="47.946709" lon="9.766173">
        <ele>612.293859</ele>
        <time>2026-07-29T08:51:47.822Z</time>
      </trkpt>
      <trkpt lat="47.946690" lon="9.766306">
        <ele>612.182327</ele>
        <time>2026-07-29T08:51:49.956Z</time>
      </trkpt>
      <trkpt lat="47.946619" lon="9.766503">
        <ele>611.998855</ele>
        <time>2026-07-29T08:51:53.423Z</time>
      </trkpt>
      <trkpt lat="47.945116" lon="9.768654">
        <ele>609.994762</ele>
        <time>2026-07-29T08:52:36.091Z</time>
      </trkpt>
      <trkpt lat="47.944426" lon="9.769636">
        <ele>609.445603</ele>
        <time>2026-07-29T08:52:58.548Z</time>
      </trkpt>
      <trkpt lat="47.944708" lon="9.770074">
        <ele>609.657894</ele>
        <time>2026-07-29T08:53:12.170Z</time>
      </trkpt>
      <trkpt lat="47.944497" lon="9.770381">
        <ele>609.811597</ele>
        <time>2026-07-29T08:53:23.530Z</time>
      </trkpt>
      <trkpt lat="47.944114" lon="9.770980">
        <ele>610.100964</ele>
        <time>2026-07-29T08:53:39.224Z</time>
      </trkpt>
      <trkpt lat="47.943983" lon="9.771228">
        <ele>610.211329</ele>
        <time>2026-07-29T08:53:45.378Z</time>
      </trkpt>
      <trkpt lat="47.943896" lon="9.771502">
        <ele>610.317289</ele>
        <time>2026-07-29T08:53:51.314Z</time>
      </trkpt>
      <trkpt lat="47.943839" lon="9.771666">
        <ele>610.375434</ele>
        <time>2026-07-29T08:53:54.150Z</time>
      </trkpt>
      <trkpt lat="47.943802" lon="9.771733">
        <ele>610.321552</ele>
        <time>2026-07-29T08:53:55.843Z</time>
      </trkpt>
      <trkpt lat="47.943603" lon="9.771891">
        <ele>610.112756</ele>
        <time>2026-07-29T08:54:02.368Z</time>
      </trkpt>
      <trkpt lat="47.943278" lon="9.772294">
        <ele>609.721376</ele>
        <time>2026-07-29T08:54:13.246Z</time>
      </trkpt>
      <trkpt lat="47.942979" lon="9.772425">
        <ele>609.432713</ele>
        <time>2026-07-29T08:54:21.112Z</time>
      </trkpt>
      <trkpt lat="47.942742" lon="9.772362">
        <ele>609.209713</ele>
        <time>2026-07-29T08:54:27.554Z</time>
      </trkpt>
      <trkpt lat="47.942652" lon="9.772517">
        <ele>609.082425</ele>
        <time>2026-07-29T08:54:31.297Z</time>
      </trkpt>
      <trkpt lat="47.942623" lon="9.772628">
        <ele>609.008492</ele>
        <time>2026-07-29T08:54:33.427Z</time>
      </trkpt>
      <trkpt lat="47.942475" lon="9.772860">
        <ele>608.809688</ele>
        <time>2026-07-29T08:54:40.659Z</time>
      </trkpt>
      <trkpt lat="47.941994" lon="9.772365">
        <ele>608.517510</ele>
        <time>2026-07-29T08:54:52.492Z</time>
      </trkpt>
      <trkpt lat="47.941652" lon="9.771896">
        <ele>608.328119</ele>
        <time>2026-07-29T08:55:02.722Z</time>
      </trkpt>
      <trkpt lat="47.941518" lon="9.771759">
        <ele>608.261884</ele>
        <time>2026-07-29T08:55:06.848Z</time>
      </trkpt>
      <trkpt lat="47.941253" lon="9.771560">
        <ele>608.140909</ele>
        <time>2026-07-29T08:55:14.702Z</time>
      </trkpt>
      <trkpt lat="47.941103" lon="9.771403">
        <ele>608.066198</ele>
        <time>2026-07-29T08:55:19.665Z</time>
      </trkpt>
      <trkpt lat="47.940910" lon="9.771202">
        <ele>607.988318</ele>
        <time>2026-07-29T08:55:26.005Z</time>
      </trkpt>
      <trkpt lat="47.940325" lon="9.770751">
        <ele>608.225141</ele>
        <time>2026-07-29T08:55:43.574Z</time>
      </trkpt>
      <trkpt lat="47.940267" lon="9.770735">
        <ele>608.246357</ele>
        <time>2026-07-29T08:55:45.151Z</time>
      </trkpt>
      <trkpt lat="47.940156" lon="9.770793">
        <ele>608.288657</ele>
        <time>2026-07-29T08:55:48.278Z</time>
      </trkpt>
      <trkpt lat="47.939934" lon="9.771019">
        <ele>608.385310</ele>
        <time>2026-07-29T08:55:55.373Z</time>
      </trkpt>
      <trkpt lat="47.939894" lon="9.771029">
        <ele>608.399898</ele>
        <time>2026-07-29T08:55:56.451Z</time>
      </trkpt>
      <trkpt lat="47.939828" lon="9.770992">
        <ele>608.425256</ele>
        <time>2026-07-29T08:55:58.300Z</time>
      </trkpt>
      <trkpt lat="47.938958" lon="9.769861">
        <ele>608.613918</ele>
        <time>2026-07-29T08:56:27.500Z</time>
      </trkpt>
      <trkpt lat="47.938546" lon="9.769375">
        <ele>608.602525</ele>
        <time>2026-07-29T08:56:40.231Z</time>
      </trkpt>
      <trkpt lat="47.937579" lon="9.768090">
        <ele>609.153047</ele>
        <time>2026-07-29T08:57:11.405Z</time>
      </trkpt>
      <trkpt lat="47.937376" lon="9.767860">
        <ele>609.387482</ele>
        <time>2026-07-29T08:57:17.628Z</time>
      </trkpt>
      <trkpt lat="47.937095" lon="9.768736">
        <ele>609.986021</ele>
        <time>2026-07-29T08:57:33.814Z</time>
      </trkpt>
      <trkpt lat="47.936782" lon="9.769711">
        <ele>610.947184</ele>
        <time>2026-07-29T08:58:01.097Z</time>
      </trkpt>
      <trkpt lat="47.936631" lon="9.769965">
        <ele>611.306970</ele>
        <time>2026-07-29T08:58:08.988Z</time>
      </trkpt>
      <trkpt lat="47.936465" lon="9.770093">
        <ele>611.602450</ele>
        <time>2026-07-29T08:58:14.560Z</time>
      </trkpt>
      <trkpt lat="47.936206" lon="9.770174">
        <ele>612.020939</ele>
        <time>2026-07-29T08:58:21.051Z</time>
      </trkpt>
      <trkpt lat="47.935833" lon="9.770338">
        <ele>612.635879</ele>
        <time>2026-07-29T08:58:29.580Z</time>
      </trkpt>
      <trkpt lat="47.935724" lon="9.770421">
        <ele>612.829393</ele>
        <time>2026-07-29T08:58:32.385Z</time>
      </trkpt>
      <trkpt lat="47.935547" lon="9.770645">
        <ele>613.215800</ele>
        <time>2026-07-29T08:58:38.008Z</time>
      </trkpt>
      <trkpt lat="47.935417" lon="9.770876">
        <ele>613.592062</ele>
        <time>2026-07-29T08:58:43.181Z</time>
      </trkpt>
      <trkpt lat="47.935293" lon="9.771394">
        <ele>614.278120</ele>
        <time>2026-07-29T08:58:52.908Z</time>
      </trkpt>
      <trkpt lat="47.935229" lon="9.771532">
        <ele>614.487450</ele>
        <time>2026-07-29T08:58:55.905Z</time>
      </trkpt>
      <trkpt lat="47.935168" lon="9.771573">
        <ele>614.611990</ele>
        <time>2026-07-29T08:58:57.694Z</time>
      </trkpt>
      <trkpt lat="47.934787" lon="9.771444">
        <ele>615.339279</ele>
        <time>2026-07-29T08:59:08.415Z</time>
      </trkpt>
      <trkpt lat="47.934659" lon="9.771415">
        <ele>615.580294</ele>
        <time>2026-07-29T08:59:12.588Z</time>
      </trkpt>
      <trkpt lat="47.934574" lon="9.771433">
        <ele>615.740115</ele>
        <time>2026-07-29T08:59:15.534Z</time>
      </trkpt>
      <trkpt lat="47.934488" lon="9.771555">
        <ele>615.960987</ele>
        <time>2026-07-29T08:59:19.876Z</time>
      </trkpt>
      <trkpt lat="47.934469" lon="9.771740">
        <ele>616.194421</ele>
        <time>2026-07-29T08:59:24.689Z</time>
      </trkpt>
      <trkpt lat="47.934482" lon="9.772263">
        <ele>616.806630</ele>
        <time>2026-07-29T08:59:39.042Z</time>
      </trkpt>
      <trkpt lat="47.934431" lon="9.772432">
        <ele>617.015063</ele>
        <time>2026-07-29T08:59:43.934Z</time>
      </trkpt>
      <trkpt lat="47.934302" lon="9.772582">
        <ele>617.289530</ele>
        <time>2026-07-29T08:59:49.978Z</time>
      </trkpt>
      <trkpt lat="47.933968" lon="9.772692">
        <ele>617.863613</ele>
        <time>2026-07-29T09:00:00.794Z</time>
      </trkpt>
      <trkpt lat="47.933819" lon="9.772792">
        <ele>618.137820</ele>
        <time>2026-07-29T09:00:05.179Z</time>
      </trkpt>
      <trkpt lat="47.933576" lon="9.773099">
        <ele>618.672175</ele>
        <time>2026-07-29T09:00:12.670Z</time>
      </trkpt>
      <trkpt lat="47.933419" lon="9.773199">
        <ele>618.958681</ele>
        <time>2026-07-29T09:00:16.494Z</time>
      </trkpt>
      <trkpt lat="47.933365" lon="9.773065">
        <ele>619.134527</ele>
        <time>2026-07-29T09:00:18.910Z</time>
      </trkpt>
      <trkpt lat="47.933276" lon="9.772651">
        <ele>619.272348</ele>
        <time>2026-07-29T09:00:26.055Z</time>
      </trkpt>
      <trkpt lat="47.933065" lon="9.772160">
        <ele>618.569084</ele>
        <time>2026-07-29T09:00:33.994Z</time>
      </trkpt>
      <trkpt lat="47.932606" lon="9.771310">
        <ele>617.252882</ele>
        <time>2026-07-29T09:00:45.742Z</time>
      </trkpt>
      <trkpt lat="47.932372" lon="9.771058">
        <ele>616.733643</ele>
        <time>2026-07-29T09:00:50.811Z</time>
      </trkpt>
      <trkpt lat="47.932148" lon="9.770956">
        <ele>616.312223</ele>
        <time>2026-07-29T09:00:55.606Z</time>
      </trkpt>
      <trkpt lat="47.932006" lon="9.770937">
        <ele>615.951092</ele>
        <time>2026-07-29T09:00:58.677Z</time>
      </trkpt>
      <trkpt lat="47.931565" lon="9.771030">
        <ele>614.631510</ele>
        <time>2026-07-29T09:01:06.866Z</time>
      </trkpt>
      <trkpt lat="47.930913" lon="9.770662">
        <ele>612.566230</ele>
        <time>2026-07-29T09:01:17.526Z</time>
      </trkpt>
      <trkpt lat="47.930711" lon="9.770531">
        <ele>611.913682</ele>
        <time>2026-07-29T09:01:20.911Z</time>
      </trkpt>
      <trkpt lat="47.930523" lon="9.770357">
        <ele>611.258261</ele>
        <time>2026-07-29T09:01:24.459Z</time>
      </trkpt>
      <trkpt lat="47.929683" lon="9.769457">
        <ele>609.483132</ele>
        <time>2026-07-29T09:01:43.594Z</time>
      </trkpt>
      <trkpt lat="47.929217" lon="9.769121">
        <ele>608.683239</ele>
        <time>2026-07-29T09:01:53.823Z</time>
      </trkpt>
      <trkpt lat="47.928716" lon="9.768819">
        <ele>607.575721</ele>
        <time>2026-07-29T09:02:04.606Z</time>
      </trkpt>
      <trkpt lat="47.928531" lon="9.768776">
        <ele>606.983512</ele>
        <time>2026-07-29T09:02:07.806Z</time>
      </trkpt>
      <trkpt lat="47.928380" lon="9.768626">
        <ele>606.409770</ele>
        <time>2026-07-29T09:02:10.704Z</time>
      </trkpt>
      <trkpt lat="47.927999" lon="9.768367">
        <ele>605.085537</ele>
        <time>2026-07-29T09:02:16.935Z</time>
      </trkpt>
      <trkpt lat="47.927623" lon="9.768073">
        <ele>603.742902</ele>
        <time>2026-07-29T09:02:23.371Z</time>
      </trkpt>
      <trkpt lat="47.927447" lon="9.767959">
        <ele>603.136042</ele>
        <time>2026-07-29T09:02:26.545Z</time>
      </trkpt>
      <trkpt lat="47.927367" lon="9.767782">
        <ele>602.683539</ele>
        <time>2026-07-29T09:02:29.103Z</time>
      </trkpt>
      <trkpt lat="47.927023" lon="9.767497">
        <ele>601.866572</ele>
        <time>2026-07-29T09:02:36.928Z</time>
      </trkpt>
      <trkpt lat="47.926987" lon="9.767424">
        <ele>601.758250</ele>
        <time>2026-07-29T09:02:38.110Z</time>
      </trkpt>
      <trkpt lat="47.926909" lon="9.767459">
        <ele>601.612982</ele>
        <time>2026-07-29T09:02:39.664Z</time>
      </trkpt>
      <trkpt lat="47.926809" lon="9.767433">
        <ele>601.431943</ele>
        <time>2026-07-29T09:02:41.557Z</time>
      </trkpt>
      <trkpt lat="47.925819" lon="9.766253">
        <ele>599.172898</ele>
        <time>2026-07-29T09:03:04.056Z</time>
      </trkpt>
      <trkpt lat="47.925634" lon="9.766020">
        <ele>598.748849</ele>
        <time>2026-07-29T09:03:08.429Z</time>
      </trkpt>
      <trkpt lat="47.925419" lon="9.765844">
        <ele>598.319292</ele>
        <time>2026-07-29T09:03:12.889Z</time>
      </trkpt>
      <trkpt lat="47.925032" lon="9.765715">
        <ele>597.624679</ele>
        <time>2026-07-29T09:03:20.185Z</time>
      </trkpt>
      <trkpt lat="47.924575" lon="9.765576">
        <ele>596.807694</ele>
        <time>2026-07-29T09:03:29.251Z</time>
      </trkpt>
      <trkpt lat="47.924306" lon="9.765416">
        <ele>596.300437</ele>
        <time>2026-07-29T09:03:34.637Z</time>
      </trkpt>
      <trkpt lat="47.924177" lon="9.765270">
        <ele>595.959222</ele>
        <time>2026-07-29T09:03:37.456Z</time>
      </trkpt>
      <trkpt lat="47.924046" lon="9.765120">
        <ele>595.290278</ele>
        <time>2026-07-29T09:03:40.178Z</time>
      </trkpt>
      <trkpt lat="47.923690" lon="9.764566">
        <ele>593.206505</ele>
        <time>2026-07-29T09:03:48.035Z</time>
      </trkpt>
      <trkpt lat="47.923378" lon="9.763944">
        <ele>591.097210</ele>
        <time>2026-07-29T09:03:55.734Z</time>
      </trkpt>
      <trkpt lat="47.923520" lon="9.763801">
        <ele>590.403192</ele>
        <time>2026-07-29T09:03:58.271Z</time>
      </trkpt>
      <trkpt lat="47.923476" lon="9.763715">
        <ele>590.109448</ele>
        <time>2026-07-29T09:03:59.361Z</time>
      </trkpt>
      <trkpt lat="47.923440" lon="9.763630">
        <ele>589.836461</ele>
        <time>2026-07-29T09:04:00.393Z</time>
      </trkpt>
      <trkpt lat="47.923441" lon="9.763514">
        <ele>589.521514</ele>
        <time>2026-07-29T09:04:01.599Z</time>
      </trkpt>
      <trkpt lat="47.923570" lon="9.763381">
        <ele>588.886301</ele>
        <time>2026-07-29T09:04:04.076Z</time>
      </trkpt>
      <trkpt lat="47.923561" lon="9.763321">
        <ele>588.765434</ele>
        <time>2026-07-29T09:04:04.741Z</time>
      </trkpt>
      <trkpt lat="47.923398" lon="9.763428">
        <ele>588.652775</ele>
        <time>2026-07-29T09:04:07.760Z</time>
      </trkpt>
      <trkpt lat="47.923312" lon="9.763345">
        <ele>588.587980</ele>
        <time>2026-07-29T09:04:09.715Z</time>
      </trkpt>
      <trkpt lat="47.923102" lon="9.763230">
        <ele>588.446460</ele>
        <time>2026-07-29T09:04:14.404Z</time>
      </trkpt>
      <trkpt lat="47.923087" lon="9.763163">
        <ele>588.416512</ele>
        <time>2026-07-29T09:04:15.442Z</time>
      </trkpt>
      <trkpt lat="47.923069" lon="9.763057">
        <ele>588.370152</ele>
        <time>2026-07-29T09:04:17.041Z</time>
      </trkpt>
      <trkpt lat="47.922779" lon="9.763134">
        <ele>588.183802</ele>
        <time>2026-07-29T09:04:23.910Z</time>
      </trkpt>
      <trkpt lat="47.922568" lon="9.763096">
        <ele>588.049344</ele>
        <time>2026-07-29T09:04:29.263Z</time>
      </trkpt>
      <trkpt lat="47.922639" lon="9.762356">
        <ele>587.732415</ele>
        <time>2026-07-29T09:04:41.537Z</time>
      </trkpt>
      <trkpt lat="47.922651" lon="9.761760">
        <ele>587.364162</ele>
        <time>2026-07-29T09:04:50.384Z</time>
      </trkpt>
      <trkpt lat="47.922540" lon="9.761320">
        <ele>587.017718</ele>
        <time>2026-07-29T09:04:56.532Z</time>
      </trkpt>
      <trkpt lat="47.922310" lon="9.760926">
        <ele>586.632674</ele>
        <time>2026-07-29T09:05:02.775Z</time>
      </trkpt>
      <trkpt lat="47.922107" lon="9.760463">
        <ele>586.224957</ele>
        <time>2026-07-29T09:05:09.331Z</time>
      </trkpt>
      <trkpt lat="47.922644" lon="9.759716">
        <ele>585.477659</ele>
        <time>2026-07-29T09:05:23.295Z</time>
      </trkpt>
      <trkpt lat="47.923040" lon="9.759065">
        <ele>584.991311</ele>
        <time>2026-07-29T09:05:34.446Z</time>
      </trkpt>
      <trkpt lat="47.923216" lon="9.758826">
        <ele>584.794880</ele>
        <time>2026-07-29T09:05:38.992Z</time>
      </trkpt>
      <trkpt lat="47.923287" lon="9.758780">
        <ele>584.730987</ele>
        <time>2026-07-29T09:05:40.510Z</time>
      </trkpt>
      <trkpt lat="47.923327" lon="9.758681">
        <ele>584.667040</ele>
        <time>2026-07-29T09:05:42.063Z</time>
      </trkpt>
      <trkpt lat="47.923948" lon="9.757624">
        <ele>584.309726</ele>
        <time>2026-07-29T09:06:02.301Z</time>
      </trkpt>
      <trkpt lat="47.923976" lon="9.757514">
        <ele>584.340936</ele>
        <time>2026-07-29T09:06:04.006Z</time>
      </trkpt>
      <trkpt lat="47.924188" lon="9.756469">
        <ele>584.630532</ele>
        <time>2026-07-29T09:06:18.984Z</time>
      </trkpt>
      <trkpt lat="47.924310" lon="9.755685">
        <ele>584.844010</ele>
        <time>2026-07-29T09:06:30.703Z</time>
      </trkpt>
      <trkpt lat="47.924453" lon="9.754771">
        <ele>585.704449</ele>
        <time>2026-07-29T09:06:55.833Z</time>
      </trkpt>
      <trkpt lat="47.924515" lon="9.754433">
        <ele>586.071285</ele>
        <time>2026-07-29T09:07:05.411Z</time>
      </trkpt>
      <trkpt lat="47.924563" lon="9.754407">
        <ele>586.151054</ele>
        <time>2026-07-29T09:07:07.175Z</time>
      </trkpt>
      <trkpt lat="47.924599" lon="9.754388">
        <ele>586.210705</ele>
        <time>2026-07-29T09:07:08.429Z</time>
      </trkpt>
      <trkpt lat="47.924388" lon="9.753180">
        <ele>587.517494</ele>
        <time>2026-07-29T09:07:23.524Z</time>
      </trkpt>
      <trkpt lat="47.924273" lon="9.752619">
        <ele>588.020984</ele>
        <time>2026-07-29T09:07:35.779Z</time>
      </trkpt>
      <trkpt lat="47.924246" lon="9.752492">
        <ele>588.125104</ele>
        <time>2026-07-29T09:07:39.786Z</time>
      </trkpt>
      <trkpt lat="47.924134" lon="9.752159">
        <ele>588.416270</ele>
        <time>2026-07-29T09:07:51.728Z</time>
      </trkpt>
      <trkpt lat="47.924018" lon="9.752015">
        <ele>588.592232</ele>
        <time>2026-07-29T09:07:58.731Z</time>
      </trkpt>
      <trkpt lat="47.923940" lon="9.751977">
        <ele>588.687918</ele>
        <time>2026-07-29T09:08:02.020Z</time>
      </trkpt>
      <trkpt lat="47.923752" lon="9.751984">
        <ele>588.907225</ele>
        <time>2026-07-29T09:08:07.871Z</time>
      </trkpt>
      <trkpt lat="47.923487" lon="9.752117">
        <ele>589.233269</ele>
        <time>2026-07-29T09:08:13.446Z</time>
      </trkpt>
      <trkpt lat="47.923406" lon="9.752167">
        <ele>589.335491</ele>
        <time>2026-07-29T09:08:14.960Z</time>
      </trkpt>
      <trkpt lat="47.923227" lon="9.752276">
        <ele>589.560946</ele>
        <time>2026-07-29T09:08:18.123Z</time>
      </trkpt>
      <trkpt lat="47.923035" lon="9.752314">
        <ele>589.786811</ele>
        <time>2026-07-29T09:08:21.368Z</time>
      </trkpt>
      <trkpt lat="47.922609" lon="9.752167">
        <ele>589.466071</ele>
        <time>2026-07-29T09:08:29.990Z</time>
      </trkpt>
      <trkpt lat="47.922256" lon="9.751988">
        <ele>589.184335</ele>
        <time>2026-07-29T09:08:37.257Z</time>
      </trkpt>
      <trkpt lat="47.922170" lon="9.751877">
        <ele>589.098409</ele>
        <time>2026-07-29T09:08:39.409Z</time>
      </trkpt>
      <trkpt lat="47.922115" lon="9.751733">
        <ele>589.014473</ele>
        <time>2026-07-29T09:08:41.588Z</time>
      </trkpt>
      <trkpt lat="47.921977" lon="9.751769">
        <ele>588.908608</ele>
        <time>2026-07-29T09:08:44.382Z</time>
      </trkpt>
      <trkpt lat="47.921864" lon="9.751724">
        <ele>588.820227</ele>
        <time>2026-07-29T09:08:46.819Z</time>
      </trkpt>
      <trkpt lat="47.921838" lon="9.751815">
        <ele>588.770130</ele>
        <time>2026-07-29T09:08:48.693Z</time>
      </trkpt>
      <trkpt lat="47.921641" lon="9.751983">
        <ele>588.598665</ele>
        <time>2026-07-29T09:08:55.600Z</time>
      </trkpt>
      <trkpt lat="47.921404" lon="9.752111">
        <ele>588.433482</ele>
        <time>2026-07-29T09:09:03.032Z</time>
      </trkpt>
      <trkpt lat="47.921332" lon="9.752182">
        <ele>588.433482</ele>
        <time>2026-07-29T09:09:05.650Z</time>
      </trkpt>
      <trkpt lat="47.921244" lon="9.752340">
        <ele>588.433482</ele>
        <time>2026-07-29T09:09:09.949Z</time>
      </trkpt>
      <trkpt lat="47.921183" lon="9.752546">
        <ele>588.433482</ele>
        <time>2026-07-29T09:09:14.621Z</time>
      </trkpt>
      <trkpt lat="47.921144" lon="9.752724">
        <ele>588.433482</ele>
        <time>2026-07-29T09:09:17.973Z</time>
      </trkpt>
      <trkpt lat="47.921127" lon="9.752838">
        <ele>588.433482</ele>
        <time>2026-07-29T09:09:19.866Z</time>
      </trkpt>
      <trkpt lat="47.921064" lon="9.753145">
        <ele>588.433482</ele>
        <time>2026-07-29T09:09:24.761Z</time>
      </trkpt>
      <trkpt lat="47.920670" lon="9.752968">
        <ele>588.433482</ele>
        <time>2026-07-29T09:09:31.134Z</time>
      </trkpt>
      <trkpt lat="47.920501" lon="9.752882">
        <ele>588.433482</ele>
        <time>2026-07-29T09:09:33.887Z</time>
      </trkpt>
      <trkpt lat="47.920471" lon="9.753021">
        <ele>588.433482</ele>
        <time>2026-07-29T09:09:35.447Z</time>
      </trkpt>
      <trkpt lat="47.920412" lon="9.753296">
        <ele>588.433482</ele>
        <time>2026-07-29T09:09:38.726Z</time>
      </trkpt>
      <trkpt lat="47.920314" lon="9.753576">
        <ele>588.433482</ele>
        <time>2026-07-29T09:09:42.573Z</time>
      </trkpt>
      <trkpt lat="47.920203" lon="9.753523">
        <ele>588.433482</ele>
        <time>2026-07-29T09:09:45.494Z</time>
      </trkpt>
      <trkpt lat="47.920061" lon="9.753346">
        <ele>588.433482</ele>
        <time>2026-07-29T09:09:50.097Z</time>
      </trkpt>
    </trkseg>
  </trk>
</gpx>